Time,TemperatureF,DewpointF,PressureIn,WindDirection,WindDirectionDegrees,WindSpeedMPH,WindSpeedGustMPH,Humidity,HourlyPrecipIn,Conditions,Clouds,dailyrainin,SoftwareType,DateUTC
2013-03-20 00:00:00,31.6,13.2,30.17,WSW,253,5.4,6.7,46,0.00,,CLR,0.00,VWS V14.01,2013-03-20 05:00:00,
2013-03-20 00:01:00,31.6,13.2,30.17,West,265,5.4,5.8,46,0.00,,CLR,0.00,VWS V14.01,2013-03-20 05:01:00,
2013-03-20 00:03:00,31.8,13.4,30.17,WSW,245,6.3,6.3,46,0.00,,CLR,0.00,VWS V14.01,2013-03-20 05:03:00,
2013-03-20 00:06:00,32.0,13.6,30.17,WSW,252,6.3,7.6,46,0.00,,CLR,0.00,VWS V14.01,2013-03-20 05:06:00,
2013-03-20 00:07:00,32.2,13.7,30.17,WSW,253,5.8,7.6,46,0.00,,CLR,0.00,VWS V14.01,2013-03-20 05:07:00,
2013-03-20 00:08:00,32.4,13.9,30.17,WSW,250,8.3,8.3,46,0.00,,CLR,0.00,VWS V14.01,2013-03-20 05:08:00,
2013-03-20 00:12:00,32.7,14.2,30.17,WNW,299,5.4,5.4,46,0.00,,CLR,0.00,VWS V14.01,2013-03-20 05:12:00,
2013-03-20 00:13:00,32.7,14.2,30.17,WNW,285,5.8,5.8,46,0.00,,CLR,0.00,VWS V14.01,2013-03-20 05:13:00,
2013-03-20 00:17:00,32.7,14.2,30.17,NW,315,8.1,11.0,46,0.00,,CLR,0.00,VWS V14.01,2013-03-20 05:17:00,
2013-03-20 00:18:00,32.5,14.1,30.17,NW,318,8.1,9.2,46,0.00,,CLR,0.00,VWS V14.01,2013-03-20 05:18:00,
2013-03-20 00:22:00,32.2,13.7,30.17,NNW,327,8.3,8.3,46,0.00,,CLR,0.00,VWS V14.01,2013-03-20 05:22:00,
2013-03-20 00:23:00,32.2,13.7,30.17,NW,325,10.1,10.1,46,0.00,,CLR,0.00,VWS V14.01,2013-03-20 05:23:00,
2013-03-20 00:24:00,32.0,13.6,30.17,NW,326,8.7,10.1,46,0.00,,CLR,0.00,VWS V14.01,2013-03-20 05:24:00,
2013-03-20 00:27:00,32.0,13.6,30.17,NW,321,6.3,8.3,46,0.00,,CLR,0.00,VWS V14.01,2013-03-20 05:27:00,
2013-03-20 00:28:00,32.0,13.6,30.17,NW,320,7.6,8.1,46,0.00,,CLR,0.00,VWS V14.01,2013-03-20 05:28:00,
2013-03-20 00:29:00,32.0,13.6,30.17,NW,304,6.3,8.3,46,0.00,,CLR,0.00,VWS V14.01,2013-03-20 05:29:00,
2013-03-20 00:30:00,31.8,13.4,30.17,NW,317,6.3,8.3,46,0.00,,CLR,0.00,VWS V14.01,2013-03-20 05:30:00,
2013-03-20 00:32:00,31.8,13.4,30.17,NW,316,5.4,7.6,46,0.00,,CLR,0.00,VWS V14.01,2013-03-20 05:32:00,
2013-03-20 00:34:00,31.8,13.4,30.17,NW,319,5.8,5.8,46,0.00,,CLR,0.00,VWS V14.01,2013-03-20 05:34:00,
2013-03-20 00:35:00,31.5,13.1,30.17,NW,316,8.1,8.1,46,0.00,,CLR,0.00,VWS V14.01,2013-03-20 05:35:00,
2013-03-20 00:37:00,31.5,13.1,30.17,NW,319,8.1,8.3,46,0.00,,CLR,0.00,VWS V14.01,2013-03-20 05:37:00,
2013-03-20 00:40:00,31.5,13.1,30.17,NW,325,10.5,11.0,46,0.00,,CLR,0.00,VWS V14.01,2013-03-20 05:40:00,
2013-03-20 00:41:00,31.8,13.4,30.17,North,4,11.0,11.0,46,0.00,,CLR,0.00,VWS V14.01,2013-03-20 05:41:00,
2013-03-20 00:43:00,32.0,13.6,30.17,NNW,341,10.1,11.0,46,0.00,,CLR,0.00,VWS V14.01,2013-03-20 05:43:00,
2013-03-20 00:45:00,32.0,10.4,30.17,NW,326,13.2,15.0,40,0.00,,CLR,0.00,VWS V14.01,2013-03-20 05:45:00,
2013-03-20 00:47:00,31.8,10.3,30.17,North,0,15.4,15.4,40,0.00,,CLR,0.00,VWS V14.01,2013-03-20 05:47:00,
2013-03-20 00:48:00,32.0,10.4,30.17,NNW,341,15.4,15.4,40,0.00,,CLR,0.00,VWS V14.01,2013-03-20 05:48:00,
2013-03-20 00:50:00,31.8,10.3,30.17,North,357,12.3,12.3,40,0.00,,CLR,0.00,VWS V14.01,2013-03-20 05:50:00,
2013-03-20 00:51:00,31.8,10.3,30.17,NNW,329,13.2,13.2,40,0.00,,CLR,0.00,VWS V14.01,2013-03-20 05:51:00,
2013-03-20 00:53:00,31.5,9.9,30.17,North,10,17.9,17.9,40,0.00,,CLR,0.00,VWS V14.01,2013-03-20 05:53:00,
2013-03-20 00:55:00,31.3,9.8,30.17,NNW,339,13.2,15.0,40,0.00,,CLR,0.00,VWS V14.01,2013-03-20 05:55:00,
2013-03-20 00:56:00,31.3,9.8,30.17,North,353,11.0,15.0,40,0.00,,CLR,0.00,VWS V14.01,2013-03-20 05:56:00,
2013-03-20 00:58:00,31.1,9.6,30.17,North,353,15.4,15.4,40,0.00,,CLR,0.00,VWS V14.01,2013-03-20 05:58:00,
2013-03-20 01:01:00,30.9,9.4,30.17,NNW,345,13.2,15.0,40,0.00,,CLR,0.00,VWS V14.01,2013-03-20 06:01:00,
2013-03-20 01:02:00,30.9,9.4,30.17,NNW,344,10.5,12.8,40,0.00,,CLR,0.00,VWS V14.01,2013-03-20 06:02:00,
2013-03-20 01:03:00,30.7,9.3,30.17,North,353,15.0,15.0,40,0.00,,CLR,0.00,VWS V14.01,2013-03-20 06:03:00,
2013-03-20 01:06:00,30.6,9.1,30.17,NNW,341,15.4,15.4,40,0.00,,CLR,0.00,VWS V14.01,2013-03-20 06:06:00,
2013-03-20 01:08:00,30.4,9.0,30.17,North,357,15.0,15.0,40,0.00,,CLR,0.00,VWS V14.01,2013-03-20 06:08:00,
2013-03-20 01:09:00,30.4,9.0,30.20,North,353,10.1,11.0,40,0.00,,CLR,0.00,VWS V14.01,2013-03-20 06:09:00,
2013-03-20 01:11:00,30.2,8.8,30.20,North,349,11.0,13.2,40,0.00,,CLR,0.00,VWS V14.01,2013-03-20 06:11:00,
2013-03-20 01:12:00,30.2,8.8,30.20,North,357,10.1,12.3,40,0.00,,CLR,0.00,VWS V14.01,2013-03-20 06:12:00,
2013-03-20 01:13:00,30.2,8.8,30.20,NNW,341,11.0,11.0,40,0.00,,CLR,0.00,VWS V14.01,2013-03-20 06:13:00,
2013-03-20 01:14:00,30.0,8.6,30.20,North,357,11.0,12.3,40,0.00,,CLR,0.00,VWS V14.01,2013-03-20 06:14:00,
2013-03-20 01:17:00,29.8,8.5,30.20,North,0,10.5,10.5,40,0.00,,CLR,0.00,VWS V14.01,2013-03-20 06:17:00,
2013-03-20 01:18:00,29.8,8.5,30.20,NNW,344,13.2,13.2,40,0.00,,CLR,0.00,VWS V14.01,2013-03-20 06:18:00,
2013-03-20 01:19:00,29.8,8.5,30.20,North,353,8.3,10.1,40,0.00,,CLR,0.00,VWS V14.01,2013-03-20 06:19:00,
2013-03-20 01:23:00,29.5,8.1,30.20,North,0,8.7,9.6,40,0.00,,CLR,0.00,VWS V14.01,2013-03-20 06:23:00,
2013-03-20 01:24:00,29.5,11.3,30.20,North,0,8.1,8.1,46,0.00,,CLR,0.00,VWS V14.01,2013-03-20 06:24:00,
2013-03-20 01:25:00,29.5,11.3,30.20,North,357,8.3,8.3,46,0.00,,CLR,0.00,VWS V14.01,2013-03-20 06:25:00,
2013-03-20 01:28:00,29.5,8.1,30.20,NNE,12,11.0,11.0,40,0.00,,CLR,0.00,VWS V14.01,2013-03-20 06:28:00,
2013-03-20 01:29:00,29.3,11.1,30.20,NNW,342,11.0,12.3,46,0.00,,CLR,0.00,VWS V14.01,2013-03-20 06:29:00,
2013-03-20 01:30:00,29.3,11.1,30.20,NNW,334,6.3,10.5,46,0.00,,CLR,0.00,VWS V14.01,2013-03-20 06:30:00,
2013-03-20 01:32:00,28.9,10.8,30.20,NNW,333,8.3,10.1,46,0.00,,CLR,0.00,VWS V14.01,2013-03-20 06:32:00,
2013-03-20 01:34:00,28.9,10.8,30.20,North,357,7.2,7.6,46,0.00,,CLR,0.00,VWS V14.01,2013-03-20 06:34:00,
2013-03-20 01:35:00,28.8,10.6,30.20,NNW,343,7.6,10.5,46,0.00,,CLR,0.00,VWS V14.01,2013-03-20 06:35:00,
2013-03-20 01:39:00,28.6,10.4,30.20,NNW,340,7.6,8.7,46,0.00,,CLR,0.00,VWS V14.01,2013-03-20 06:39:00,
2013-03-20 01:40:00,28.6,10.4,30.20,North,353,6.3,6.3,46,0.00,,CLR,0.00,VWS V14.01,2013-03-20 06:40:00,
2013-03-20 01:44:00,28.2,10.1,30.20,North,0,8.1,8.3,46,0.00,,CLR,0.00,VWS V14.01,2013-03-20 06:44:00,
2013-03-20 01:45:00,28.2,10.1,30.20,North,353,6.3,8.3,46,0.00,,CLR,0.00,VWS V14.01,2013-03-20 06:45:00,
2013-03-20 01:50:00,27.9,9.8,30.20,NNW,342,6.3,8.7,46,0.00,,CLR,0.00,VWS V14.01,2013-03-20 06:50:00,
2013-03-20 01:52:00,27.9,9.8,30.20,NNW,345,6.3,6.3,46,0.00,,CLR,0.00,VWS V14.01,2013-03-20 06:52:00,
2013-03-20 01:55:00,27.9,9.8,30.20,NNW,334,6.3,8.3,46,0.00,,CLR,0.00,VWS V14.01,2013-03-20 06:55:00,
2013-03-20 01:56:00,27.7,9.6,30.20,NNW,334,6.3,8.3,46,0.00,,CLR,0.00,VWS V14.01,2013-03-20 06:56:00,
2013-03-20 01:57:00,27.9,9.8,30.20,NNW,339,5.8,6.3,46,0.00,,CLR,0.00,VWS V14.01,2013-03-20 06:57:00,
2013-03-20 02:01:00,27.7,12.4,30.20,North,353,6.3,6.3,52,0.00,,CLR,0.00,VWS V14.01,2013-03-20 07:01:00,
2013-03-20 02:02:00,27.7,12.4,30.20,North,353,5.8,6.3,52,0.00,,CLR,0.00,VWS V14.01,2013-03-20 07:02:00,
2013-03-20 02:06:00,27.5,12.2,30.20,NNW,337,6.3,6.3,52,0.00,,CLR,0.00,VWS V14.01,2013-03-20 07:06:00,
2013-03-20 02:07:00,27.3,12.0,30.20,NNW,330,5.4,6.3,52,0.00,,CLR,0.00,VWS V14.01,2013-03-20 07:07:00,
2013-03-20 02:08:00,27.3,12.0,30.20,NNW,330,4.9,5.4,52,0.00,,CLR,0.00,VWS V14.01,2013-03-20 07:08:00,
2013-03-20 02:11:00,27.0,11.7,30.20,NW,323,6.3,7.6,52,0.00,,CLR,0.00,VWS V14.01,2013-03-20 07:11:00,
2013-03-20 02:12:00,27.0,11.7,30.20,NW,323,5.8,5.8,52,0.00,,CLR,0.00,VWS V14.01,2013-03-20 07:12:00,
2013-03-20 02:13:00,27.0,11.7,30.20,NNW,327,5.4,5.8,52,0.00,,CLR,0.00,VWS V14.01,2013-03-20 07:13:00,
2013-03-20 02:16:00,27.0,11.7,30.20,NNW,341,6.3,7.6,52,0.00,,CLR,0.00,VWS V14.01,2013-03-20 07:16:00,
2013-03-20 02:17:00,27.0,11.7,30.20,NNW,332,8.1,8.3,52,0.00,,CLR,0.00,VWS V14.01,2013-03-20 07:17:00,
2013-03-20 02:18:00,27.0,11.7,30.20,NNW,330,5.4,6.3,52,0.00,,CLR,0.00,VWS V14.01,2013-03-20 07:18:00,
2013-03-20 02:21:00,27.1,11.9,30.20,NNW,335,5.4,6.3,52,0.00,,CLR,0.00,VWS V14.01,2013-03-20 07:21:00,
2013-03-20 02:22:00,27.1,11.9,30.20,NNW,336,6.3,6.3,52,0.00,,CLR,0.00,VWS V14.01,2013-03-20 07:22:00,
2013-03-20 02:23:00,27.0,11.7,30.20,NNW,336,6.3,6.3,52,0.00,,CLR,0.00,VWS V14.01,2013-03-20 07:23:00,
2013-03-20 02:27:00,27.0,11.7,30.20,NW,324,5.8,5.8,52,0.00,,CLR,0.00,VWS V14.01,2013-03-20 07:27:00,
2013-03-20 02:28:00,27.0,11.7,30.20,NW,317,4.9,5.4,52,0.00,,CLR,0.00,VWS V14.01,2013-03-20 07:28:00,
2013-03-20 02:29:00,26.8,11.5,30.20,NW,317,4.9,5.4,52,0.00,,CLR,0.00,VWS V14.01,2013-03-20 07:29:00,
2013-03-20 02:32:00,26.6,13.8,30.20,NW,314,5.4,6.3,58,0.00,,CLR,0.00,VWS V14.01,2013-03-20 07:32:00,
2013-03-20 02:33:00,26.6,13.8,30.20,NW,320,6.3,6.3,58,0.00,,CLR,0.00,VWS V14.01,2013-03-20 07:33:00,
2013-03-20 02:34:00,26.6,13.8,30.20,NW,320,5.4,6.3,58,0.00,,CLR,0.00,VWS V14.01,2013-03-20 07:34:00,
2013-03-20 02:38:00,26.4,13.7,30.20,NW,315,5.8,6.3,58,0.00,,CLR,0.00,VWS V14.01,2013-03-20 07:38:00,
2013-03-20 02:39:00,26.6,13.8,30.20,NW,321,5.4,5.4,58,0.00,,CLR,0.00,VWS V14.01,2013-03-20 07:39:00,
2013-03-20 02:43:00,26.6,11.4,30.20,NNW,329,8.3,8.7,52,0.00,,CLR,0.00,VWS V14.01,2013-03-20 07:43:00,
2013-03-20 02:44:00,27.0,13.4,30.20,NW,322,7.6,8.1,56,0.00,,CLR,0.00,VWS V14.01,2013-03-20 07:44:00,
2013-03-20 02:45:00,27.0,13.4,30.20,NW,326,8.3,8.3,56,0.00,,CLR,0.00,VWS V14.01,2013-03-20 07:45:00,
2013-03-20 02:48:00,27.1,11.9,30.20,NW,319,8.3,8.7,52,0.00,,CLR,0.00,VWS V14.01,2013-03-20 07:48:00,
2013-03-20 02:49:00,27.1,11.9,30.20,NW,322,8.3,8.3,52,0.00,,CLR,0.00,VWS V14.01,2013-03-20 07:49:00,
2013-03-20 02:50:00,27.1,11.9,30.20,NNW,330,7.2,8.7,52,0.00,,CLR,0.00,VWS V14.01,2013-03-20 07:50:00,
2013-03-20 02:53:00,27.1,13.5,30.20,NW,326,7.6,8.3,56,0.00,,CLR,0.00,VWS V14.01,2013-03-20 07:53:00,
2013-03-20 02:54:00,27.1,13.5,30.20,NW,315,8.3,8.3,56,0.00,,CLR,0.00,VWS V14.01,2013-03-20 07:54:00,
2013-03-20 02:56:00,27.1,11.9,30.20,NW,319,6.3,6.3,52,0.00,,CLR,0.00,VWS V14.01,2013-03-20 07:56:00,
2013-03-20 02:57:00,27.1,11.9,30.20,NW,325,5.8,6.3,52,0.00,,CLR,0.00,VWS V14.01,2013-03-20 07:57:00,
2013-03-20 02:59:00,27.0,11.7,30.20,NNW,329,5.8,8.1,52,0.00,,CLR,0.00,VWS V14.01,2013-03-20 07:59:00,
2013-03-20 03:00:00,27.0,13.4,30.20,NNW,333,8.3,8.3,56,0.00,,CLR,0.00,VWS V14.01,2013-03-20 08:00:00,
2013-03-20 03:02:00,27.0,13.4,30.20,NW,325,6.3,7.6,56,0.00,,CLR,0.00,VWS V14.01,2013-03-20 08:02:00,
2013-03-20 03:04:00,26.8,11.5,30.20,NW,316,6.3,8.3,52,0.00,,CLR,0.00,VWS V14.01,2013-03-20 08:04:00,
2013-03-20 03:05:00,27.0,13.4,30.20,NNW,346,7.6,7.6,56,0.00,,CLR,0.00,VWS V14.01,2013-03-20 08:05:00,
2013-03-20 03:08:00,27.0,13.4,30.20,NW,326,10.5,12.8,56,0.00,,CLR,0.00,VWS V14.01,2013-03-20 08:08:00,
2013-03-20 03:10:00,27.1,13.5,30.17,NW,322,7.6,8.3,56,0.00,,CLR,0.00,VWS V14.01,2013-03-20 08:10:00,
2013-03-20 03:11:00,27.1,13.5,30.17,NW,320,8.1,8.7,56,0.00,,CLR,0.00,VWS V14.01,2013-03-20 08:11:00,
2013-03-20 03:13:00,27.1,13.5,30.17,NW,318,5.8,7.2,56,0.00,,CLR,0.00,VWS V14.01,2013-03-20 08:13:00,
2013-03-20 03:14:00,27.1,13.5,30.17,NW,318,5.4,5.8,56,0.00,,CLR,0.00,VWS V14.01,2013-03-20 08:14:00,
2013-03-20 03:15:00,27.0,13.4,30.17,NW,321,8.7,8.7,56,0.00,,CLR,0.00,VWS V14.01,2013-03-20 08:15:00,
2013-03-20 03:16:00,27.0,13.4,30.17,NW,317,5.8,7.6,56,0.00,,CLR,0.00,VWS V14.01,2013-03-20 08:16:00,
2013-03-20 03:18:00,26.6,11.4,30.17,NW,320,6.7,8.3,52,0.00,,CLR,0.00,VWS V14.01,2013-03-20 08:18:00,
2013-03-20 03:19:00,26.8,13.2,30.17,NW,324,6.7,6.7,56,0.00,,CLR,0.00,VWS V14.01,2013-03-20 08:19:00,
2013-03-20 03:20:00,26.8,13.2,30.17,WNW,300,5.8,6.3,56,0.00,,CLR,0.00,VWS V14.01,2013-03-20 08:20:00,
2013-03-20 03:21:00,26.6,13.8,30.17,NW,326,8.3,8.3,58,0.00,,CLR,0.00,VWS V14.01,2013-03-20 08:21:00,
2013-03-20 03:23:00,26.6,13.8,30.20,NNW,327,8.1,10.1,58,0.00,,CLR,0.00,VWS V14.01,2013-03-20 08:23:00,
2013-03-20 03:24:00,26.8,13.2,30.20,NW,321,8.1,8.7,56,0.00,,CLR,0.00,VWS V14.01,2013-03-20 08:24:00,
2013-03-20 03:26:00,27.0,13.4,30.20,NNW,342,13.2,13.2,56,0.00,,CLR,0.00,VWS V14.01,2013-03-20 08:26:00,
2013-03-20 03:28:00,27.0,13.4,30.20,NW,322,10.1,10.5,56,0.00,,CLR,0.00,VWS V14.01,2013-03-20 08:28:00,
2013-03-20 03:30:00,27.1,11.9,30.20,NNW,331,10.5,13.2,52,0.00,,CLR,0.00,VWS V14.01,2013-03-20 08:30:00,
2013-03-20 03:31:00,27.3,13.7,30.20,NW,324,8.3,10.5,56,0.00,,CLR,0.00,VWS V14.01,2013-03-20 08:31:00,
2013-03-20 03:33:00,27.3,13.7,30.20,NW,323,11.0,11.0,56,0.00,,CLR,0.00,VWS V14.01,2013-03-20 08:33:00,
2013-03-20 03:35:00,27.3,13.7,30.20,NW,324,11.0,11.0,56,0.00,,CLR,0.00,VWS V14.01,2013-03-20 08:35:00,
2013-03-20 03:37:00,27.3,13.7,30.20,NW,311,10.1,10.5,56,0.00,,CLR,0.00,VWS V14.01,2013-03-20 08:37:00,
2013-03-20 03:39:00,27.5,16.2,30.20,NNW,328,11.0,11.0,62,0.00,,CLR,0.00,VWS V14.01,2013-03-20 08:39:00,
2013-03-20 03:42:00,27.7,14.0,30.20,NNW,331,12.8,15.0,56,0.00,,CLR,0.00,VWS V14.01,2013-03-20 08:42:00,
2013-03-20 03:44:00,27.5,16.2,30.20,NNW,340,8.7,11.0,62,0.00,,CLR,0.00,VWS V14.01,2013-03-20 08:44:00,
2013-03-20 03:47:00,27.3,16.0,30.20,NW,321,10.1,12.3,62,0.00,,CLR,0.00,VWS V14.01,2013-03-20 08:47:00,
2013-03-20 03:48:00,27.3,16.0,30.20,NNW,334,10.5,10.5,62,0.00,,CLR,0.00,VWS V14.01,2013-03-20 08:48:00,
2013-03-20 03:49:00,27.1,15.9,30.20,NNW,328,12.8,12.8,62,0.00,,CLR,0.00,VWS V14.01,2013-03-20 08:49:00,
2013-03-20 03:53:00,27.1,15.9,30.20,NNW,339,7.6,8.3,62,0.00,,CLR,0.00,VWS V14.01,2013-03-20 08:53:00,
2013-03-20 03:55:00,27.1,15.9,30.20,NW,317,8.7,10.5,62,0.00,,CLR,0.00,VWS V14.01,2013-03-20 08:55:00,
2013-03-20 03:58:00,27.3,16.0,30.20,North,357,14.1,17.9,62,0.00,,CLR,0.00,VWS V14.01,2013-03-20 08:58:00,
2013-03-20 03:59:00,27.3,16.0,30.20,NW,315,12.8,17.9,62,0.00,,CLR,0.00,VWS V14.01,2013-03-20 08:59:00,
2013-03-20 04:00:00,27.5,16.2,30.20,NW,323,13.2,13.2,62,0.00,,CLR,0.00,VWS V14.01,2013-03-20 09:00:00,
2013-03-20 04:04:00,27.7,16.4,30.20,NNW,329,16.8,17.4,62,0.00,,CLR,0.00,VWS V14.01,2013-03-20 09:04:00,
2013-03-20 04:05:00,27.7,16.4,30.20,NNW,337,12.3,12.3,62,0.00,,CLR,0.00,VWS V14.01,2013-03-20 09:05:00,
2013-03-20 04:09:00,27.9,14.2,30.20,NNW,341,22.4,23.3,56,0.00,,CLR,0.00,VWS V14.01,2013-03-20 09:09:00,
2013-03-20 04:10:00,27.7,14.0,30.20,NNW,327,17.4,17.4,56,0.00,,CLR,0.00,VWS V14.01,2013-03-20 09:10:00,
2013-03-20 04:15:00,27.5,13.9,30.20,North,353,12.8,17.4,56,0.00,,CLR,0.00,VWS V14.01,2013-03-20 09:15:00,
2013-03-20 04:16:00,27.3,13.7,30.20,North,0,14.1,15.0,56,0.00,,CLR,0.00,VWS V14.01,2013-03-20 09:16:00,
2013-03-20 04:20:00,27.0,15.7,30.20,NNW,340,17.0,21.0,62,0.00,,CLR,0.00,VWS V14.01,2013-03-20 09:20:00,
2013-03-20 04:21:00,27.0,15.7,30.20,North,353,15.4,15.4,62,0.00,,CLR,0.00,VWS V14.01,2013-03-20 09:21:00,
2013-03-20 04:25:00,26.6,16.1,30.20,NNW,333,13.6,13.6,64,0.00,,CLR,0.00,VWS V14.01,2013-03-20 09:25:00,
2013-03-20 04:26:00,26.6,16.1,30.20,NNW,334,12.8,12.8,64,0.00,,CLR,0.00,VWS V14.01,2013-03-20 09:26:00,
2013-03-20 04:27:00,26.4,15.2,30.20,NNW,342,14.1,17.4,62,0.00,,CLR,0.00,VWS V14.01,2013-03-20 09:27:00,
2013-03-20 04:30:00,26.1,13.3,30.20,North,0,19.7,19.7,58,0.00,,CLR,0.00,VWS V14.01,2013-03-20 09:30:00,
2013-03-20 04:31:00,26.1,13.3,30.20,North,353,18.3,19.7,58,0.00,,CLR,0.00,VWS V14.01,2013-03-20 09:31:00,
2013-03-20 04:33:00,25.9,13.1,30.20,North,349,17.9,17.9,58,0.00,,CLR,0.00,VWS V14.01,2013-03-20 09:33:00,
2013-03-20 04:35:00,25.9,13.1,30.20,North,353,17.0,17.0,58,0.00,,CLR,0.00,VWS V14.01,2013-03-20 09:35:00,
2013-03-20 04:36:00,25.9,13.1,30.20,NNW,345,13.2,18.3,58,0.00,,CLR,0.00,VWS V14.01,2013-03-20 09:36:00,
2013-03-20 04:38:00,25.9,13.1,30.20,NNW,330,12.8,17.0,58,0.00,,CLR,0.00,VWS V14.01,2013-03-20 09:38:00,
2013-03-20 04:40:00,25.5,14.3,30.20,NNW,344,12.8,15.0,62,0.00,,CLR,0.00,VWS V14.01,2013-03-20 09:40:00,
2013-03-20 04:42:00,25.5,14.3,30.20,North,357,12.8,12.8,62,0.00,,CLR,0.00,VWS V14.01,2013-03-20 09:42:00,
2013-03-20 04:44:00,25.3,14.2,30.20,NNW,343,12.8,15.4,62,0.00,,CLR,0.00,VWS V14.01,2013-03-20 09:44:00,
2013-03-20 04:45:00,25.3,14.2,30.20,North,5,12.8,12.8,62,0.00,,CLR,0.00,VWS V14.01,2013-03-20 09:45:00,
2013-03-20 04:47:00,25.3,12.6,30.20,North,0,14.1,14.1,58,0.00,,CLR,0.00,VWS V14.01,2013-03-20 09:47:00,
2013-03-20 04:50:00,25.3,12.6,30.20,NW,326,12.3,12.8,58,0.00,,CLR,0.00,VWS V14.01,2013-03-20 09:50:00,
2013-03-20 04:51:00,25.3,12.6,30.20,NNW,334,11.0,12.8,58,0.00,,CLR,0.00,VWS V14.01,2013-03-20 09:51:00,
2013-03-20 04:52:00,25.3,10.2,30.20,NNW,335,14.5,26.2,52,0.00,,CLR,0.00,VWS V14.01,2013-03-20 09:52:00,
2013-03-20 04:55:00,25.2,8.2,30.20,NNW,332,18.3,18.3,48,0.00,,CLR,0.00,VWS V14.01,2013-03-20 09:55:00,
2013-03-20 04:56:00,25.3,8.4,30.20,NW,325,19.2,19.2,48,0.00,,CLR,0.00,VWS V14.01,2013-03-20 09:56:00,
2013-03-20 04:57:00,25.3,8.4,30.20,NNW,332,17.9,19.2,48,0.00,,CLR,0.00,VWS V14.01,2013-03-20 09:57:00,
2013-03-20 05:00:00,25.0,8.1,30.20,NNW,344,15.0,17.4,48,0.00,,CLR,0.00,VWS V14.01,2013-03-20 10:00:00,
2013-03-20 05:02:00,24.6,7.7,30.20,NNW,330,17.9,17.9,48,0.00,,CLR,0.00,VWS V14.01,2013-03-20 10:02:00,
2013-03-20 05:03:00,24.8,7.9,30.20,NW,319,16.8,17.9,48,0.00,,CLR,0.00,VWS V14.01,2013-03-20 10:03:00,
2013-03-20 05:04:00,24.6,10.4,30.20,NNW,338,15.9,16.8,54,0.00,,CLR,0.00,VWS V14.01,2013-03-20 10:04:00,
2013-03-20 05:06:00,24.6,7.7,30.20,North,353,19.7,19.7,48,0.00,,CLR,0.00,VWS V14.01,2013-03-20 10:06:00,
2013-03-20 05:07:00,24.8,7.9,30.20,NNW,329,17.4,20.1,48,0.00,,CLR,0.00,VWS V14.01,2013-03-20 10:07:00,
2013-03-20 05:08:00,24.6,7.7,30.20,NNW,338,18.3,18.3,48,0.00,,CLR,0.00,VWS V14.01,2013-03-20 10:08:00,
2013-03-20 05:09:00,24.6,7.7,30.23,NNW,336,21.9,21.9,48,0.00,,CLR,0.00,VWS V14.01,2013-03-20 10:09:00,
2013-03-20 05:12:00,24.4,10.2,30.23,NW,315,15.4,15.4,54,0.00,,CLR,0.00,VWS V14.01,2013-03-20 10:12:00,
2013-03-20 05:13:00,24.4,10.2,30.23,NNW,330,15.4,17.0,54,0.00,,CLR,0.00,VWS V14.01,2013-03-20 10:13:00,
2013-03-20 05:15:00,24.1,9.9,30.23,NNW,334,17.9,17.9,54,0.00,,CLR,0.00,VWS V14.01,2013-03-20 10:15:00,
2013-03-20 05:17:00,23.9,9.7,30.23,NNW,342,12.8,14.5,54,0.00,,CLR,0.00,VWS V14.01,2013-03-20 10:17:00,
2013-03-20 05:18:00,23.7,9.5,30.23,North,11,11.0,12.3,54,0.00,,CLR,0.00,VWS V14.01,2013-03-20 10:18:00,
2013-03-20 05:19:00,23.5,9.4,30.23,North,357,20.1,20.1,54,0.00,,CLR,0.00,VWS V14.01,2013-03-20 10:19:00,
2013-03-20 05:20:00,23.4,9.2,30.23,NNW,334,19.7,19.7,54,0.00,,CLR,0.00,VWS V14.01,2013-03-20 10:20:00,
2013-03-20 05:23:00,23.0,8.9,30.23,North,357,10.1,12.8,54,0.00,,CLR,0.00,VWS V14.01,2013-03-20 10:23:00,
2013-03-20 05:24:00,22.8,8.7,30.23,North,357,12.8,15.0,54,0.00,,CLR,0.00,VWS V14.01,2013-03-20 10:24:00,
2013-03-20 05:25:00,22.8,8.7,30.23,North,353,15.0,19.2,54,0.00,,CLR,0.00,VWS V14.01,2013-03-20 10:25:00,
2013-03-20 05:28:00,22.6,8.5,30.23,North,353,15.4,17.9,54,0.00,,CLR,0.00,VWS V14.01,2013-03-20 10:28:00,
2013-03-20 05:29:00,22.6,8.5,30.23,North,9,12.8,17.9,54,0.00,,CLR,0.00,VWS V14.01,2013-03-20 10:29:00,
2013-03-20 05:30:00,22.5,8.3,30.23,North,0,20.6,21.9,54,0.00,,CLR,0.00,VWS V14.01,2013-03-20 10:30:00,
2013-03-20 05:34:00,22.3,8.2,30.23,NNW,335,13.2,15.4,54,0.00,,CLR,0.00,VWS V14.01,2013-03-20 10:34:00,
2013-03-20 05:35:00,22.3,8.2,30.23,North,350,20.1,20.1,54,0.00,,CLR,0.00,VWS V14.01,2013-03-20 10:35:00,
2013-03-20 05:36:00,22.3,6.5,30.23,NNW,342,19.7,20.1,50,0.00,,CLR,0.00,VWS V14.01,2013-03-20 10:36:00,
2013-03-20 05:39:00,22.1,6.3,30.23,NNW,337,15.4,17.0,50,0.00,,CLR,0.00,VWS V14.01,2013-03-20 10:39:00,
2013-03-20 05:40:00,21.9,6.1,30.23,NNW,333,13.2,15.4,50,0.00,,CLR,0.00,VWS V14.01,2013-03-20 10:40:00,
2013-03-20 05:43:00,21.9,6.1,30.23,NNW,335,15.4,18.8,50,0.00,,CLR,0.00,VWS V14.01,2013-03-20 10:43:00,
2013-03-20 05:44:00,21.9,6.1,30.23,NNW,332,13.6,15.0,50,0.00,,CLR,0.00,VWS V14.01,2013-03-20 10:44:00,
2013-03-20 05:45:00,21.9,6.1,30.23,NNW,338,14.5,15.9,50,0.00,,CLR,0.00,VWS V14.01,2013-03-20 10:45:00,
2013-03-20 05:48:00,21.6,5.8,30.23,NW,324,14.5,18.3,50,0.00,,CLR,0.00,VWS V14.01,2013-03-20 10:48:00,
2013-03-20 05:50:00,21.7,6.0,30.23,NNW,337,14.5,14.5,50,0.00,,CLR,0.00,VWS V14.01,2013-03-20 10:50:00,
2013-03-20 05:51:00,21.7,6.0,30.23,NNW,335,15.4,16.8,50,0.00,,CLR,0.00,VWS V14.01,2013-03-20 10:51:00,
2013-03-20 05:53:00,21.4,5.6,30.23,NW,320,12.8,13.6,50,0.00,,CLR,0.00,VWS V14.01,2013-03-20 10:53:00,
2013-03-20 05:55:00,21.2,5.5,30.23,NNW,331,11.0,14.1,50,0.00,,CLR,0.00,VWS V14.01,2013-03-20 10:55:00,
2013-03-20 05:56:00,21.2,5.5,30.23,NW,322,15.0,15.0,50,0.00,,CLR,0.00,VWS V14.01,2013-03-20 10:56:00,
2013-03-20 05:58:00,21.4,5.6,30.23,NNW,341,10.5,17.0,50,0.00,,CLR,0.00,VWS V14.01,2013-03-20 10:58:00,
2013-03-20 06:01:00,21.2,5.5,30.23,North,5,12.3,15.0,50,0.00,,CLR,0.00,VWS V14.01,2013-03-20 11:01:00,
2013-03-20 06:02:00,21.0,5.3,30.23,North,353,12.8,15.4,50,0.00,,CLR,0.00,VWS V14.01,2013-03-20 11:02:00,
2013-03-20 06:04:00,21.0,5.3,30.23,NNW,338,11.0,11.0,50,0.00,,CLR,0.00,VWS V14.01,2013-03-20 11:04:00,
2013-03-20 06:06:00,20.8,5.1,30.23,North,353,12.8,13.6,50,0.00,,CLR,0.00,VWS V14.01,2013-03-20 11:06:00,
2013-03-20 06:07:00,20.8,5.1,30.23,NW,326,16.3,16.3,50,0.00,,CLR,0.00,VWS V14.01,2013-03-20 11:07:00,
2013-03-20 06:09:00,20.7,5.0,30.26,NNW,340,17.4,17.4,50,0.00,,CLR,0.00,VWS V14.01,2013-03-20 11:09:00,
2013-03-20 06:12:00,20.7,5.0,30.26,North,3,15.0,19.2,50,0.00,,CLR,0.00,VWS V14.01,2013-03-20 11:12:00,
2013-03-20 06:14:00,20.5,4.8,30.26,NNW,328,13.2,15.0,50,0.00,,CLR,0.00,VWS V14.01,2013-03-20 11:14:00,
2013-03-20 06:17:00,20.5,4.8,30.26,NNW,338,13.6,15.4,50,0.00,,CLR,0.00,VWS V14.01,2013-03-20 11:17:00,
2013-03-20 06:18:00,20.3,4.6,30.26,NNW,336,12.8,17.9,50,0.00,,CLR,0.00,VWS V14.01,2013-03-20 11:18:00,
2013-03-20 06:19:00,20.3,4.6,30.26,North,0,16.3,16.3,50,0.00,,CLR,0.00,VWS V14.01,2013-03-20 11:19:00,
2013-03-20 06:20:00,20.3,4.6,30.26,North,0,15.4,19.7,50,0.00,,CLR,0.00,VWS V14.01,2013-03-20 11:20:00,
2013-03-20 06:22:00,20.3,4.6,30.26,NNW,333,15.0,17.9,50,0.00,,CLR,0.00,VWS V14.01,2013-03-20 11:22:00,
2013-03-20 06:24:00,20.1,4.5,30.26,NNW,340,15.0,16.8,50,0.00,,CLR,0.00,VWS V14.01,2013-03-20 11:24:00,
2013-03-20 06:26:00,20.1,4.5,30.26,NNW,332,20.1,20.1,50,0.00,,CLR,0.00,VWS V14.01,2013-03-20 11:26:00,
2013-03-20 06:27:00,20.1,4.5,30.26,NNW,345,18.8,18.8,50,0.00,,CLR,0.00,VWS V14.01,2013-03-20 11:27:00,
2013-03-20 06:29:00,19.9,4.3,30.26,NW,326,23.3,23.3,50,0.00,,CLR,0.00,VWS V14.01,2013-03-20 11:29:00,
2013-03-20 06:30:00,19.9,4.3,30.26,NNW,338,17.4,23.3,50,0.00,,CLR,0.00,VWS V14.01,2013-03-20 11:30:00,
2013-03-20 06:32:00,19.8,1.4,30.26,North,349,17.4,23.3,44,0.00,,CLR,0.00,VWS V14.01,2013-03-20 11:32:00,
2013-03-20 06:34:00,19.6,4.0,30.26,NNW,340,17.4,17.4,50,0.00,,CLR,0.00,VWS V14.01,2013-03-20 11:34:00,
2013-03-20 06:36:00,19.6,4.0,30.26,NNW,341,17.9,24.2,50,0.00,,CLR,0.00,VWS V14.01,2013-03-20 11:36:00,
2013-03-20 06:38:00,19.4,3.8,30.26,North,357,18.3,24.2,50,0.00,,CLR,0.00,VWS V14.01,2013-03-20 11:38:00,
2013-03-20 06:40:00,19.4,3.8,30.26,NNW,331,24.2,25.1,50,0.00,,CLR,0.00,VWS V14.01,2013-03-20 11:40:00,
2013-03-20 06:41:00,19.4,3.8,30.26,North,0,15.4,25.1,50,0.00,,CLR,0.00,VWS V14.01,2013-03-20 11:41:00,
2013-03-20 06:43:00,19.2,3.6,30.26,NNW,330,22.8,26.6,50,0.00,,CLR,0.00,VWS V14.01,2013-03-20 11:43:00,
2013-03-20 06:45:00,19.2,3.6,30.26,NNW,330,22.8,22.8,50,0.00,,CLR,0.00,VWS V14.01,2013-03-20 11:45:00,
2013-03-20 06:46:00,19.2,3.6,30.26,NNE,12,17.0,28.4,50,0.00,,CLR,0.00,VWS V14.01,2013-03-20 11:46:00,
2013-03-20 06:48:00,19.2,3.6,30.26,NNW,333,17.4,19.7,50,0.00,,CLR,0.00,VWS V14.01,2013-03-20 11:48:00,
2013-03-20 06:50:00,19.2,3.6,30.26,North,353,22.8,22.8,50,0.00,,CLR,0.00,VWS V14.01,2013-03-20 11:50:00,
2013-03-20 06:51:00,19.0,3.5,30.26,NNW,327,23.7,23.7,50,0.00,,CLR,0.00,VWS V14.01,2013-03-20 11:51:00,
2013-03-20 06:54:00,19.0,3.5,30.26,NNW,340,14.5,23.3,50,0.00,,CLR,0.00,VWS V14.01,2013-03-20 11:54:00,
2013-03-20 06:55:00,18.9,3.3,30.26,NW,324,16.8,27.1,50,0.00,,CLR,0.00,VWS V14.01,2013-03-20 11:55:00,
2013-03-20 06:56:00,18.9,3.3,30.26,NNW,332,19.2,27.1,50,0.00,,CLR,0.00,VWS V14.01,2013-03-20 11:56:00,
2013-03-20 06:57:00,19.0,3.5,30.26,NNW,341,15.4,19.2,50,0.00,,CLR,0.00,VWS V14.01,2013-03-20 11:57:00,
2013-03-20 07:00:00,18.9,3.3,30.26,NNW,341,25.1,25.1,50,0.00,,CLR,0.00,VWS V14.01,2013-03-20 12:00:00,
2013-03-20 07:01:00,18.9,3.3,30.26,NNW,329,17.4,26.2,50,0.00,,CLR,0.00,VWS V14.01,2013-03-20 12:01:00,
2013-03-20 07:02:00,18.9,3.3,30.26,North,0,17.9,19.2,50,0.00,,CLR,0.00,VWS V14.01,2013-03-20 12:02:00,
2013-03-20 07:05:00,18.7,3.1,30.26,NNW,334,18.3,21.9,50,0.00,,CLR,0.00,VWS V14.01,2013-03-20 12:05:00,
2013-03-20 07:07:00,18.9,3.3,30.26,NNW,348,13.2,19.2,50,0.00,,CLR,0.00,VWS V14.01,2013-03-20 12:07:00,
2013-03-20 07:10:00,18.7,3.1,30.26,NNW,331,17.0,17.0,50,0.00,,CLR,0.00,VWS V14.01,2013-03-20 12:10:00,
2013-03-20 07:12:00,18.7,3.1,30.26,North,353,15.0,15.0,50,0.00,,CLR,0.00,VWS V14.01,2013-03-20 12:12:00,
2013-03-20 07:13:00,18.7,3.1,30.26,NW,326,15.9,17.4,50,0.00,,CLR,0.00,VWS V14.01,2013-03-20 12:13:00,
2013-03-20 07:17:00,18.7,3.1,30.26,NNW,345,15.0,17.0,50,0.00,,CLR,0.00,VWS V14.01,2013-03-20 12:17:00,
2013-03-20 07:18:00,18.5,3.0,30.26,North,349,22.4,22.4,50,0.00,,CLR,0.00,VWS V14.01,2013-03-20 12:18:00,
2013-03-20 07:22:00,18.7,3.1,30.26,NNW,330,12.3,12.8,50,0.00,,CLR,0.00,VWS V14.01,2013-03-20 12:22:00,
2013-03-20 07:23:00,18.7,3.1,30.26,NW,316,17.4,17.4,50,0.00,,CLR,0.00,VWS V14.01,2013-03-20 12:23:00,
2013-03-20 07:24:00,18.7,3.1,30.29,North,0,11.4,12.8,50,0.00,,CLR,0.00,VWS V14.01,2013-03-20 12:24:00,
2013-03-20 07:28:00,18.7,3.1,30.29,North,357,15.0,15.0,50,0.00,,CLR,0.00,VWS V14.01,2013-03-20 12:28:00,
2013-03-20 07:29:00,18.7,3.1,30.29,North,4,14.5,15.0,50,0.00,,CLR,0.00,VWS V14.01,2013-03-20 12:29:00,
2013-03-20 07:30:00,18.7,3.1,30.29,NNW,335,10.1,10.1,50,0.00,,CLR,0.00,VWS V14.01,2013-03-20 12:30:00,
2013-03-20 07:34:00,18.7,3.1,30.29,North,0,10.5,13.6,50,0.00,,CLR,0.00,VWS V14.01,2013-03-20 12:34:00,
2013-03-20 07:35:00,18.7,3.1,30.29,North,353,13.6,13.6,50,0.00,,CLR,0.00,VWS V14.01,2013-03-20 12:35:00,
2013-03-20 07:39:00,19.0,3.5,30.29,North,2,11.0,11.9,50,0.00,,CLR,0.00,VWS V14.01,2013-03-20 12:39:00,
2013-03-20 07:40:00,19.0,3.5,30.29,NNW,338,11.0,11.9,50,0.00,,CLR,0.00,VWS V14.01,2013-03-20 12:40:00,
2013-03-20 07:41:00,19.0,3.5,30.29,North,0,10.1,10.5,50,0.00,,CLR,0.00,VWS V14.01,2013-03-20 12:41:00,
2013-03-20 07:45:00,19.4,3.8,30.29,North,7,8.7,12.3,50,0.00,,CLR,0.00,VWS V14.01,2013-03-20 12:45:00,
2013-03-20 07:46:00,19.4,3.8,30.29,North,353,13.2,13.2,50,0.00,,CLR,0.00,VWS V14.01,2013-03-20 12:46:00,
2013-03-20 07:50:00,19.6,4.0,30.29,North,353,7.6,11.0,50,0.00,,CLR,0.00,VWS V14.01,2013-03-20 12:50:00,
2013-03-20 07:51:00,19.6,4.0,30.29,NNW,344,8.3,11.0,50,0.00,,CLR,0.00,VWS V14.01,2013-03-20 12:51:00,
2013-03-20 07:57:00,19.9,4.3,30.29,North,353,13.2,13.2,50,0.00,,CLR,0.00,VWS V14.01,2013-03-20 12:57:00,
2013-03-20 08:02:00,20.1,4.5,30.29,NW,326,12.8,15.4,50,0.00,,CLR,0.00,VWS V14.01,2013-03-20 13:02:00,
2013-03-20 08:03:00,20.1,4.5,30.29,NNW,331,12.8,15.4,50,0.00,,CLR,0.00,VWS V14.01,2013-03-20 13:03:00,
2013-03-20 08:08:00,20.3,4.6,30.29,NW,324,10.5,11.0,50,0.00,,CLR,0.00,VWS V14.01,2013-03-20 13:08:00,
2013-03-20 08:09:00,20.3,4.6,30.29,NNW,335,10.1,10.5,50,0.00,,CLR,0.00,VWS V14.01,2013-03-20 13:09:00,
2013-03-20 08:13:00,20.5,4.8,30.29,NNW,339,8.7,10.5,50,0.00,,CLR,0.00,VWS V14.01,2013-03-20 13:13:00,
2013-03-20 08:14:00,20.7,5.0,30.29,North,0,10.5,10.5,50,0.00,,CLR,0.00,VWS V14.01,2013-03-20 13:14:00,
2013-03-20 08:18:00,21.0,5.3,30.29,North,350,8.1,8.1,50,0.00,,CLR,0.00,VWS V14.01,2013-03-20 13:18:00,
2013-03-20 08:19:00,21.0,5.3,30.29,NNW,330,10.1,15.0,50,0.00,,CLR,0.00,VWS V14.01,2013-03-20 13:19:00,
2013-03-20 08:20:00,21.0,5.3,30.29,NNW,341,9.6,15.0,50,0.00,,CLR,0.00,VWS V14.01,2013-03-20 13:20:00,
2013-03-20 08:23:00,21.2,5.5,30.29,NNW,330,11.0,12.3,50,0.00,,CLR,0.00,VWS V14.01,2013-03-20 13:23:00,
2013-03-20 08:24:00,21.2,5.5,30.29,NNW,331,8.1,10.1,50,0.00,,CLR,0.00,VWS V14.01,2013-03-20 13:24:00,
2013-03-20 08:25:00,21.2,5.5,30.29,NNW,340,10.5,10.5,50,0.00,,CLR,0.00,VWS V14.01,2013-03-20 13:25:00,
2013-03-20 08:28:00,21.6,5.8,30.29,NW,326,10.1,11.0,50,0.00,,CLR,0.00,VWS V14.01,2013-03-20 13:28:00,
2013-03-20 08:30:00,21.7,6.0,30.29,NW,322,10.1,12.3,50,0.00,,CLR,0.00,VWS V14.01,2013-03-20 13:30:00,
2013-03-20 08:33:00,21.9,6.1,30.29,NW,321,13.6,13.6,50,0.00,,CLR,0.00,VWS V14.01,2013-03-20 13:33:00,
2013-03-20 08:35:00,21.9,6.1,30.29,NNW,328,10.5,10.5,50,0.00,,CLR,0.00,VWS V14.01,2013-03-20 13:35:00,
2013-03-20 08:37:00,21.9,6.1,30.29,NNW,338,13.2,17.0,50,0.00,,CLR,0.00,VWS V14.01,2013-03-20 13:37:00,
2013-03-20 08:39:00,21.9,6.1,30.29,NNW,331,12.8,17.0,50,0.00,,CLR,0.00,VWS V14.01,2013-03-20 13:39:00,
2013-03-20 08:40:00,21.9,6.1,30.29,NW,325,15.9,15.9,50,0.00,,CLR,0.00,VWS V14.01,2013-03-20 13:40:00,
2013-03-20 08:41:00,21.9,6.1,30.29,NNW,331,11.9,15.9,50,0.00,,CLR,0.00,VWS V14.01,2013-03-20 13:41:00,
2013-03-20 08:42:00,21.7,6.0,30.29,NNW,330,11.0,15.0,50,0.00,,CLR,0.00,VWS V14.01,2013-03-20 13:42:00,
2013-03-20 08:45:00,21.6,5.8,30.29,NNW,346,15.4,15.9,50,0.00,,CLR,0.00,VWS V14.01,2013-03-20 13:45:00,
2013-03-20 08:46:00,21.7,6.0,30.29,NW,315,12.8,12.8,50,0.00,,CLR,0.00,VWS V14.01,2013-03-20 13:46:00,
2013-03-20 08:47:00,21.7,6.0,30.29,NNW,330,15.4,15.4,50,0.00,,CLR,0.00,VWS V14.01,2013-03-20 13:47:00,
2013-03-20 08:51:00,22.3,6.5,30.29,NNW,327,14.1,19.7,50,0.00,,CLR,0.00,VWS V14.01,2013-03-20 13:51:00,
2013-03-20 08:52:00,22.1,6.3,30.29,NNW,328,14.5,17.9,50,0.00,,CLR,0.00,VWS V14.01,2013-03-20 13:52:00,
2013-03-20 08:55:00,22.3,6.5,30.29,NNW,334,19.2,19.7,50,0.00,,CLR,0.00,VWS V14.01,2013-03-20 13:55:00,
2013-03-20 08:56:00,22.1,6.3,30.29,NNW,338,17.4,17.4,50,0.00,,CLR,0.00,VWS V14.01,2013-03-20 13:56:00,
2013-03-20 08:57:00,22.1,6.3,30.29,NNW,328,17.4,17.4,50,0.00,,CLR,0.00,VWS V14.01,2013-03-20 13:57:00,
2013-03-20 08:58:00,22.1,6.3,30.29,NNW,346,17.0,21.0,50,0.00,,CLR,0.00,VWS V14.01,2013-03-20 13:58:00,
2013-03-20 09:00:00,22.1,6.3,30.29,NW,317,14.1,15.4,50,0.00,,CLR,0.00,VWS V14.01,2013-03-20 14:00:00,
2013-03-20 09:02:00,22.3,6.5,30.29,NNW,338,12.8,13.2,50,0.00,,CLR,0.00,VWS V14.01,2013-03-20 14:02:00,
2013-03-20 09:03:00,22.5,6.6,30.29,NW,315,19.7,19.7,50,0.00,,CLR,0.00,VWS V14.01,2013-03-20 14:03:00,
2013-03-20 09:06:00,22.6,6.8,30.29,NW,325,10.5,10.5,50,0.00,,CLR,0.00,VWS V14.01,2013-03-20 14:06:00,
2013-03-20 09:07:00,22.6,6.8,30.29,NW,313,12.8,19.2,50,0.00,,CLR,0.00,VWS V14.01,2013-03-20 14:07:00,
2013-03-20 09:08:00,22.6,6.8,30.29,NW,316,11.0,19.2,50,0.00,,CLR,0.00,VWS V14.01,2013-03-20 14:08:00,
2013-03-20 09:11:00,22.6,6.8,30.29,NNW,348,17.4,22.8,50,0.00,,CLR,0.00,VWS V14.01,2013-03-20 14:11:00,
2013-03-20 09:13:00,22.5,3.9,30.29,NNW,335,21.0,25.1,44,0.00,,CLR,0.00,VWS V14.01,2013-03-20 14:13:00,
2013-03-20 09:17:00,22.6,4.0,30.29,NNW,329,22.8,22.8,44,0.00,,CLR,0.00,VWS V14.01,2013-03-20 14:17:00,
2013-03-20 09:18:00,22.6,4.0,30.29,NW,323,17.4,17.4,44,0.00,,CLR,0.00,VWS V14.01,2013-03-20 14:18:00,
2013-03-20 09:19:00,22.6,4.0,30.29,NNW,341,13.2,18.3,44,0.00,,CLR,0.00,VWS V14.01,2013-03-20 14:19:00,
2013-03-20 09:20:00,22.8,4.2,30.29,NNW,346,19.7,20.1,44,0.00,,CLR,0.00,VWS V14.01,2013-03-20 14:20:00,
2013-03-20 09:22:00,22.8,4.2,30.29,NNW,329,16.8,19.7,44,0.00,,CLR,0.00,VWS V14.01,2013-03-20 14:22:00,
2013-03-20 09:24:00,22.8,4.2,30.29,NNW,328,21.9,23.7,44,0.00,,CLR,0.00,VWS V14.01,2013-03-20 14:24:00,
2013-03-20 09:25:00,23.0,4.3,30.29,NW,319,14.5,21.9,44,0.00,,CLR,0.00,VWS V14.01,2013-03-20 14:25:00,
2013-03-20 09:28:00,23.2,4.5,30.29,NNW,331,18.8,21.0,44,0.00,,CLR,0.00,VWS V14.01,2013-03-20 14:28:00,
2013-03-20 09:29:00,23.2,4.5,30.29,NW,321,16.8,22.8,44,0.00,,CLR,0.00,VWS V14.01,2013-03-20 14:29:00,
2013-03-20 09:31:00,23.2,4.5,30.29,NNW,341,13.2,24.6,44,0.00,,CLR,0.00,VWS V14.01,2013-03-20 14:31:00,
2013-03-20 09:34:00,23.4,4.7,30.29,NW,326,15.4,19.7,44,0.00,,CLR,0.00,VWS V14.01,2013-03-20 14:34:00,
2013-03-20 09:35:00,23.4,4.7,30.29,NW,306,19.7,19.7,44,0.00,,CLR,0.00,VWS V14.01,2013-03-20 14:35:00,
2013-03-20 09:36:00,23.2,4.5,30.29,NW,312,17.0,19.7,44,0.00,,CLR,0.00,VWS V14.01,2013-03-20 14:36:00,
2013-03-20 09:39:00,23.4,4.7,30.29,NW,319,15.4,15.4,44,0.00,,CLR,0.00,VWS V14.01,2013-03-20 14:39:00,
2013-03-20 09:40:00,23.4,4.7,30.29,NNW,330,18.8,18.8,44,0.00,,CLR,0.00,VWS V14.01,2013-03-20 14:40:00,
2013-03-20 09:42:00,23.4,4.7,30.29,NNW,331,12.8,18.3,44,0.00,,CLR,0.00,VWS V14.01,2013-03-20 14:42:00,
2013-03-20 09:45:00,23.5,4.8,30.29,NNW,336,15.4,19.2,44,0.00,,CLR,0.00,VWS V14.01,2013-03-20 14:45:00,
2013-03-20 09:46:00,23.7,5.0,30.29,NNW,329,19.2,19.7,44,0.00,,CLR,0.00,VWS V14.01,2013-03-20 14:46:00,
2013-03-20 09:47:00,23.5,4.8,30.29,North,0,18.3,22.8,44,0.00,,CLR,0.00,VWS V14.01,2013-03-20 14:47:00,
2013-03-20 09:50:00,23.9,5.2,30.29,NNW,330,14.5,19.7,44,0.00,,CLR,0.00,VWS V14.01,2013-03-20 14:50:00,
2013-03-20 09:51:00,23.9,5.2,30.29,NNW,335,23.7,23.7,44,0.00,,CLR,0.00,VWS V14.01,2013-03-20 14:51:00,
2013-03-20 09:52:00,23.7,5.0,30.29,NNW,338,16.8,22.4,44,0.00,,CLR,0.00,VWS V14.01,2013-03-20 14:52:00,
2013-03-20 09:55:00,23.9,5.2,30.29,NW,326,15.4,17.9,44,0.00,,CLR,0.00,VWS V14.01,2013-03-20 14:55:00,
2013-03-20 09:57:00,23.9,5.2,30.29,NW,315,20.1,24.6,44,0.00,,CLR,0.00,VWS V14.01,2013-03-20 14:57:00,
2013-03-20 09:58:00,23.9,5.2,30.29,NNW,328,15.4,20.6,44,0.00,,CLR,0.00,VWS V14.01,2013-03-20 14:58:00,
2013-03-20 10:00:00,23.7,5.0,30.29,NNW,328,24.6,24.6,44,0.00,,CLR,0.00,VWS V14.01,2013-03-20 15:00:00,
2013-03-20 10:01:00,23.5,4.8,30.29,NNW,337,19.7,24.6,44,0.00,,CLR,0.00,VWS V14.01,2013-03-20 15:01:00,
2013-03-20 10:02:00,23.9,5.2,30.29,North,0,22.8,22.8,44,0.00,,CLR,0.00,VWS V14.01,2013-03-20 15:02:00,
2013-03-20 10:03:00,23.7,5.0,30.29,NNW,339,28.0,28.0,44,0.00,,CLR,0.00,VWS V14.01,2013-03-20 15:03:00,
2013-03-20 10:05:00,24.4,5.7,30.29,NW,324,22.8,22.8,44,0.00,,CLR,0.00,VWS V14.01,2013-03-20 15:05:00,
2013-03-20 10:07:00,24.8,6.0,30.29,NW,322,24.2,24.2,44,0.00,,CLR,0.00,VWS V14.01,2013-03-20 15:07:00,
2013-03-20 10:08:00,24.4,5.7,30.29,NNW,337,15.4,15.9,44,0.00,,CLR,0.00,VWS V14.01,2013-03-20 15:08:00,
2013-03-20 10:10:00,24.3,5.5,30.29,NNW,338,17.4,25.7,44,0.00,,CLR,0.00,VWS V14.01,2013-03-20 15:10:00,
2013-03-20 10:12:00,23.9,5.2,30.29,NW,322,17.4,20.1,44,0.00,,CLR,0.00,VWS V14.01,2013-03-20 15:12:00,
2013-03-20 10:13:00,24.1,5.3,30.29,NNW,331,17.0,17.0,44,0.00,,CLR,0.00,VWS V14.01,2013-03-20 15:13:00,
2013-03-20 10:16:00,24.1,5.3,30.29,NNW,332,17.4,20.6,44,0.00,,CLR,0.00,VWS V14.01,2013-03-20 15:16:00,
2013-03-20 10:18:00,24.3,5.5,30.29,NNW,333,15.4,16.8,44,0.00,,CLR,0.00,VWS V14.01,2013-03-20 15:18:00,
2013-03-20 10:19:00,24.1,5.3,30.29,NNW,338,24.6,24.6,44,0.00,,CLR,0.00,VWS V14.01,2013-03-20 15:19:00,
2013-03-20 10:21:00,23.5,4.8,30.29,NNW,335,20.1,23.3,44,0.00,,CLR,0.00,VWS V14.01,2013-03-20 15:21:00,
2013-03-20 10:23:00,23.9,5.2,30.29,NNW,330,13.2,14.1,44,0.00,,CLR,0.00,VWS V14.01,2013-03-20 15:23:00,
2013-03-20 10:24:00,23.9,5.2,30.29,NNW,330,18.8,18.8,44,0.00,,CLR,0.00,VWS V14.01,2013-03-20 15:24:00,
2013-03-20 10:27:00,24.4,5.7,30.29,NW,316,15.4,15.4,44,0.00,,CLR,0.00,VWS V14.01,2013-03-20 15:27:00,
2013-03-20 10:28:00,24.8,6.0,30.29,NW,326,19.7,24.2,44,0.00,,CLR,0.00,VWS V14.01,2013-03-20 15:28:00,
2013-03-20 10:29:00,24.8,6.0,30.29,NW,309,18.8,20.6,44,0.00,,CLR,0.00,VWS V14.01,2013-03-20 15:29:00,
2013-03-20 10:30:00,24.6,5.8,30.29,NW,322,21.5,21.5,44,0.00,,CLR,0.00,VWS V14.01,2013-03-20 15:30:00,
2013-03-20 10:32:00,25.0,5.1,30.29,NW,316,16.8,19.2,42,0.00,,CLR,0.00,VWS V14.01,2013-03-20 15:32:00,
2013-03-20 10:34:00,24.8,6.0,30.29,NW,318,22.8,22.8,44,0.00,,CLR,0.00,VWS V14.01,2013-03-20 15:34:00,
2013-03-20 10:35:00,24.4,5.7,30.29,NW,322,16.8,16.8,44,0.00,,CLR,0.00,VWS V14.01,2013-03-20 15:35:00,
2013-03-20 10:37:00,24.1,5.3,30.29,NW,320,15.0,20.6,44,0.00,,CLR,0.00,VWS V14.01,2013-03-20 15:37:00,
2013-03-20 10:40:00,24.4,5.7,30.29,NW,305,14.5,21.0,44,0.00,,CLR,0.00,VWS V14.01,2013-03-20 15:40:00,
2013-03-20 10:43:00,24.4,5.7,30.29,NNW,333,16.8,17.4,44,0.00,,CLR,0.00,VWS V14.01,2013-03-20 15:43:00,
2013-03-20 10:45:00,24.1,5.3,30.29,NW,319,12.8,16.8,44,0.00,,CLR,0.00,VWS V14.01,2013-03-20 15:45:00,
2013-03-20 10:46:00,24.4,5.7,30.29,NW,310,15.0,15.4,44,0.00,,CLR,0.00,VWS V14.01,2013-03-20 15:46:00,
2013-03-20 10:48:00,25.0,5.1,30.29,NW,320,12.8,13.2,42,0.00,,CLR,0.00,VWS V14.01,2013-03-20 15:48:00,
2013-03-20 10:50:00,26.1,6.1,30.29,NW,311,12.8,15.0,42,0.00,,CLR,0.00,VWS V14.01,2013-03-20 15:50:00,
2013-03-20 10:51:00,26.1,6.1,30.29,NW,321,12.8,15.0,42,0.00,,CLR,0.00,VWS V14.01,2013-03-20 15:51:00,
2013-03-20 10:52:00,26.6,6.6,30.29,NW,314,11.0,11.0,42,0.00,,CLR,0.00,VWS V14.01,2013-03-20 15:52:00,
2013-03-20 10:53:00,27.1,7.1,30.29,NW,308,14.5,15.0,42,0.00,,CLR,0.00,VWS V14.01,2013-03-20 15:53:00,
2013-03-20 10:56:00,26.8,6.8,30.29,NW,315,13.6,13.6,42,0.00,,CLR,0.00,VWS V14.01,2013-03-20 15:56:00,
2013-03-20 10:57:00,25.7,5.8,30.29,NW,313,12.8,14.1,42,0.00,,CLR,0.00,VWS V14.01,2013-03-20 15:57:00,
2013-03-20 10:58:00,25.5,5.6,30.29,NNW,338,14.1,14.1,42,0.00,,CLR,0.00,VWS V14.01,2013-03-20 15:58:00,
2013-03-20 10:59:00,25.3,5.5,30.29,West,279,8.3,15.0,42,0.00,,CLR,0.00,VWS V14.01,2013-03-20 15:59:00,
2013-03-20 11:01:00,25.7,5.8,30.29,NW,320,17.0,17.0,42,0.00,,CLR,0.00,VWS V14.01,2013-03-20 16:01:00,
2013-03-20 11:03:00,26.1,6.1,30.29,NW,316,18.3,18.3,42,0.00,,CLR,0.00,VWS V14.01,2013-03-20 16:03:00,
2013-03-20 11:05:00,26.1,6.1,30.29,NNW,331,15.0,18.8,42,0.00,,CLR,0.00,VWS V14.01,2013-03-20 16:05:00,
2013-03-20 11:06:00,26.1,6.1,30.29,NNW,338,16.8,16.8,42,0.00,,CLR,0.00,VWS V14.01,2013-03-20 16:06:00,
2013-03-20 11:09:00,26.1,6.1,30.29,NNW,329,18.8,18.8,42,0.00,,CLR,0.00,VWS V14.01,2013-03-20 16:09:00,
2013-03-20 11:11:00,26.6,6.6,30.29,NNW,330,15.9,21.9,42,0.00,,CLR,0.00,VWS V14.01,2013-03-20 16:11:00,
2013-03-20 11:14:00,26.4,6.4,30.29,NW,315,15.0,23.7,42,0.00,,CLR,0.00,VWS V14.01,2013-03-20 16:14:00,
2013-03-20 11:16:00,26.4,6.4,30.29,WNW,296,13.2,15.0,42,0.00,,CLR,0.00,VWS V14.01,2013-03-20 16:16:00,
2013-03-20 11:19:00,26.6,6.6,30.29,NW,325,15.0,15.0,42,0.00,,CLR,0.00,VWS V14.01,2013-03-20 16:19:00,
2013-03-20 11:20:00,26.8,6.8,30.29,NNW,331,10.5,13.2,42,0.00,,CLR,0.00,VWS V14.01,2013-03-20 16:20:00,
2013-03-20 11:21:00,27.0,6.9,30.29,NW,326,13.2,15.0,42,0.00,,CLR,0.00,VWS V14.01,2013-03-20 16:21:00,
2013-03-20 11:24:00,26.8,6.8,30.29,NNW,334,18.3,19.7,42,0.00,,CLR,0.00,VWS V14.01,2013-03-20 16:24:00,
2013-03-20 11:26:00,27.0,6.9,30.29,NW,325,8.3,13.6,42,0.00,,CLR,0.00,VWS V14.01,2013-03-20 16:26:00,
2013-03-20 11:27:00,27.0,6.9,30.29,NW,324,11.4,11.4,42,0.00,,CLR,0.00,VWS V14.01,2013-03-20 16:27:00,
2013-03-20 11:30:00,26.6,6.6,30.29,NNW,340,14.1,15.4,42,0.00,,CLR,0.00,VWS V14.01,2013-03-20 16:30:00,
2013-03-20 11:31:00,26.6,6.6,30.29,NNW,333,12.3,12.3,42,0.00,,CLR,0.00,VWS V14.01,2013-03-20 16:31:00,
2013-03-20 11:32:00,26.6,6.6,30.29,NNW,334,17.4,17.4,42,0.00,,CLR,0.00,VWS V14.01,2013-03-20 16:32:00,
2013-03-20 11:33:00,27.0,6.9,30.29,NNW,342,16.8,16.8,42,0.00,,CLR,0.00,VWS V14.01,2013-03-20 16:33:00,
2013-03-20 11:35:00,27.1,7.1,30.29,NNW,344,14.5,17.9,42,0.00,,CLR,0.00,VWS V14.01,2013-03-20 16:35:00,
2013-03-20 11:37:00,27.3,7.3,30.29,NW,321,11.9,13.2,42,0.00,,CLR,0.00,VWS V14.01,2013-03-20 16:37:00,
2013-03-20 11:40:00,27.5,7.4,30.29,NNW,327,10.5,13.2,42,0.00,,CLR,0.00,VWS V14.01,2013-03-20 16:40:00,
2013-03-20 11:41:00,27.3,7.3,30.29,NW,321,13.6,17.4,42,0.00,,CLR,0.00,VWS V14.01,2013-03-20 16:41:00,
2013-03-20 11:42:00,27.1,7.1,30.29,NW,313,8.7,11.0,42,0.00,,CLR,0.00,VWS V14.01,2013-03-20 16:42:00,
2013-03-20 11:46:00,27.9,7.8,30.29,NW,311,11.4,15.0,42,0.00,,CLR,0.00,VWS V14.01,2013-03-20 16:46:00,
2013-03-20 11:48:00,27.7,7.6,30.29,WNW,292,8.1,12.8,42,0.00,,CLR,0.00,VWS V14.01,2013-03-20 16:48:00,
2013-03-20 11:51:00,27.1,7.1,30.29,NW,319,13.2,19.7,42,0.00,,CLR,0.00,VWS V14.01,2013-03-20 16:51:00,
2013-03-20 11:53:00,27.0,6.9,30.29,NW,314,13.2,16.8,42,0.00,,CLR,0.00,VWS V14.01,2013-03-20 16:53:00,
2013-03-20 11:57:00,27.9,7.8,30.29,NW,313,12.8,12.8,42,0.00,,CLR,0.00,VWS V14.01,2013-03-20 16:57:00,
2013-03-20 11:58:00,28.6,7.3,30.29,NW,316,12.8,12.8,40,0.00,,CLR,0.00,VWS V14.01,2013-03-20 16:58:00,
2013-03-20 11:59:00,28.6,7.3,30.29,WNW,303,12.8,13.2,40,0.00,,CLR,0.00,VWS V14.01,2013-03-20 16:59:00,
2013-03-20 12:02:00,28.0,7.9,30.29,NNW,327,11.0,15.9,42,0.00,,CLR,0.00,VWS V14.01,2013-03-20 17:02:00,
2013-03-20 12:03:00,28.4,8.2,30.29,NW,316,15.0,15.9,42,0.00,,CLR,0.00,VWS V14.01,2013-03-20 17:03:00,
2013-03-20 12:05:00,28.2,8.1,30.29,NW,315,11.0,13.2,42,0.00,,CLR,0.00,VWS V14.01,2013-03-20 17:05:00,
2013-03-20 12:08:00,28.4,8.2,30.29,NW,314,9.2,14.5,42,0.00,,CLR,0.00,VWS V14.01,2013-03-20 17:08:00,
2013-03-20 12:09:00,28.2,8.1,30.29,North,350,13.2,13.2,42,0.00,,CLR,0.00,VWS V14.01,2013-03-20 17:09:00,
2013-03-20 12:11:00,28.6,7.3,30.29,WNW,300,11.4,14.5,40,0.00,,CLR,0.00,VWS V14.01,2013-03-20 17:11:00,
2013-03-20 12:13:00,28.8,7.5,30.29,NW,325,11.0,11.0,40,0.00,,CLR,0.00,VWS V14.01,2013-03-20 17:13:00,
2013-03-20 12:14:00,28.6,7.3,30.29,NNW,336,11.0,13.2,40,0.00,,CLR,0.00,VWS V14.01,2013-03-20 17:14:00,
2013-03-20 12:16:00,28.0,7.9,30.29,West,274,8.7,12.3,42,0.00,,CLR,0.00,VWS V14.01,2013-03-20 17:16:00,
2013-03-20 12:18:00,27.9,7.8,30.29,NW,313,10.5,10.5,42,0.00,,CLR,0.00,VWS V14.01,2013-03-20 17:18:00,
2013-03-20 12:19:00,27.9,7.8,30.29,NW,316,9.6,9.6,42,0.00,,CLR,0.00,VWS V14.01,2013-03-20 17:19:00,
2013-03-20 12:21:00,27.1,7.1,30.29,West,281,8.3,15.4,42,0.00,,CLR,0.00,VWS V14.01,2013-03-20 17:21:00,
2013-03-20 12:24:00,27.1,7.1,30.29,NW,317,13.2,15.0,42,0.00,,CLR,0.00,VWS V14.01,2013-03-20 17:24:00,
2013-03-20 12:25:00,27.9,7.8,30.29,NW,310,15.0,15.4,42,0.00,,CLR,0.00,VWS V14.01,2013-03-20 17:25:00,
2013-03-20 12:26:00,28.6,7.3,30.29,NW,317,14.1,14.1,40,0.00,,CLR,0.00,VWS V14.01,2013-03-20 17:26:00,
2013-03-20 12:30:00,27.9,7.8,30.29,NW,309,11.0,17.9,42,0.00,,CLR,0.00,VWS V14.01,2013-03-20 17:30:00,
2013-03-20 12:32:00,28.4,8.2,30.29,NW,320,12.8,13.2,42,0.00,,CLR,0.00,VWS V14.01,2013-03-20 17:32:00,
2013-03-20 12:35:00,29.5,8.1,30.29,NW,304,10.1,13.2,40,0.00,,CLR,0.00,VWS V14.01,2013-03-20 17:35:00,
2013-03-20 12:36:00,29.5,8.1,30.29,NW,304,11.0,13.2,40,0.00,,CLR,0.00,VWS V14.01,2013-03-20 17:36:00,
2013-03-20 12:37:00,28.9,7.7,30.29,NW,326,13.2,21.0,40,0.00,,CLR,0.00,VWS V14.01,2013-03-20 17:37:00,
2013-03-20 12:41:00,29.5,8.1,30.26,NW,323,11.0,14.5,40,0.00,,CLR,0.00,VWS V14.01,2013-03-20 17:41:00,
2013-03-20 12:42:00,29.7,8.3,30.26,NW,320,23.7,23.7,40,0.00,,CLR,0.00,VWS V14.01,2013-03-20 17:42:00,
2013-03-20 12:43:00,30.0,8.6,30.26,NW,326,13.2,23.7,40,0.00,,CLR,0.00,VWS V14.01,2013-03-20 17:43:00,
2013-03-20 12:46:00,30.0,8.6,30.26,NW,308,15.9,16.3,40,0.00,,CLR,0.00,VWS V14.01,2013-03-20 17:46:00,
2013-03-20 12:47:00,30.2,8.8,30.26,WNW,299,16.3,16.3,40,0.00,,CLR,0.00,VWS V14.01,2013-03-20 17:47:00,
2013-03-20 12:48:00,29.7,8.3,30.26,NW,311,17.4,17.4,40,0.00,,CLR,0.00,VWS V14.01,2013-03-20 17:48:00,
2013-03-20 12:51:00,29.5,8.1,30.26,NW,305,12.8,12.8,40,0.00,,CLR,0.00,VWS V14.01,2013-03-20 17:51:00,
2013-03-20 12:52:00,29.3,8.0,30.26,West,279,12.8,15.4,40,0.00,,CLR,0.00,VWS V14.01,2013-03-20 17:52:00,
2013-03-20 12:53:00,29.3,8.0,30.26,WNW,301,12.8,15.4,40,0.00,,CLR,0.00,VWS V14.01,2013-03-20 17:53:00,
2013-03-20 12:57:00,29.1,7.8,30.26,NW,322,16.8,16.8,40,0.00,,CLR,0.00,VWS V14.01,2013-03-20 17:57:00,
2013-03-20 12:58:00,28.8,7.5,30.26,NNW,330,14.5,16.8,40,0.00,,CLR,0.00,VWS V14.01,2013-03-20 17:58:00,
2013-03-20 13:02:00,28.6,7.3,30.26,NW,320,17.4,17.4,40,0.00,,CLR,0.00,VWS V14.01,2013-03-20 18:02:00,
2013-03-20 13:03:00,29.5,8.1,30.26,NW,314,15.4,15.4,40,0.00,,CLR,0.00,VWS V14.01,2013-03-20 18:03:00,
2013-03-20 13:04:00,29.5,8.1,30.26,WNW,303,16.8,16.8,40,0.00,,CLR,0.00,VWS V14.01,2013-03-20 18:04:00,
2013-03-20 13:08:00,29.3,8.0,30.26,NW,324,12.8,15.0,40,0.00,,CLR,0.00,VWS V14.01,2013-03-20 18:08:00,
2013-03-20 13:09:00,29.3,8.0,30.26,WNW,283,6.3,15.0,40,0.00,,CLR,0.00,VWS V14.01,2013-03-20 18:09:00,
2013-03-20 13:14:00,29.5,8.1,30.26,NW,316,15.4,15.4,40,0.00,,CLR,0.00,VWS V14.01,2013-03-20 18:14:00,
2013-03-20 13:15:00,29.7,8.3,30.26,NW,315,10.5,10.5,40,0.00,,CLR,0.00,VWS V14.01,2013-03-20 18:15:00,
2013-03-20 13:19:00,29.8,8.5,30.26,NW,321,11.9,15.9,40,0.00,,CLR,0.00,VWS V14.01,2013-03-20 18:19:00,
2013-03-20 13:20:00,29.7,8.3,30.26,NW,321,17.4,17.4,40,0.00,,CLR,0.00,VWS V14.01,2013-03-20 18:20:00,
2013-03-20 13:21:00,30.0,8.6,30.26,NW,311,13.2,17.4,40,0.00,,CLR,0.00,VWS V14.01,2013-03-20 18:21:00,
2013-03-20 13:24:00,30.0,8.6,30.26,NW,307,15.4,18.8,40,0.00,,CLR,0.00,VWS V14.01,2013-03-20 18:24:00,
2013-03-20 13:25:00,30.0,8.6,30.26,WNW,299,13.2,13.2,40,0.00,,CLR,0.00,VWS V14.01,2013-03-20 18:25:00,
2013-03-20 13:27:00,30.4,9.0,30.26,NNW,330,17.0,17.0,40,0.00,,CLR,0.00,VWS V14.01,2013-03-20 18:27:00,
2013-03-20 13:30:00,30.7,9.3,30.26,West,274,9.2,10.1,40,0.00,,CLR,0.00,VWS V14.01,2013-03-20 18:30:00,
2013-03-20 13:31:00,31.1,9.6,30.26,West,275,10.5,12.8,40,0.00,,CLR,0.00,VWS V14.01,2013-03-20 18:31:00,
2013-03-20 13:32:00,31.1,9.6,30.26,NW,305,7.6,10.1,40,0.00,,CLR,0.00,VWS V14.01,2013-03-20 18:32:00,
2013-03-20 13:33:00,31.3,9.8,30.26,WNW,284,9.6,10.1,40,0.00,,CLR,0.00,VWS V14.01,2013-03-20 18:33:00,
2013-03-20 13:36:00,29.3,8.0,30.26,NW,320,14.5,18.8,40,0.00,,CLR,0.00,VWS V14.01,2013-03-20 18:36:00,
2013-03-20 13:37:00,29.1,7.8,30.26,NW,322,13.2,17.4,40,0.00,,CLR,0.00,VWS V14.01,2013-03-20 18:37:00,
2013-03-20 13:38:00,29.5,8.1,30.26,NNW,336,10.1,10.5,40,0.00,,CLR,0.00,VWS V14.01,2013-03-20 18:38:00,
2013-03-20 13:42:00,30.0,8.6,30.26,NW,321,11.0,13.2,40,0.00,,CLR,0.00,VWS V14.01,2013-03-20 18:42:00,
2013-03-20 13:43:00,30.4,9.0,30.26,NW,325,12.8,12.8,40,0.00,,CLR,0.00,VWS V14.01,2013-03-20 18:43:00,
2013-03-20 13:47:00,30.2,8.8,30.26,NNW,338,15.9,23.7,40,0.00,,CLR,0.00,VWS V14.01,2013-03-20 18:47:00,
2013-03-20 13:48:00,30.0,8.6,30.26,NW,326,15.0,16.8,40,0.00,,CLR,0.00,VWS V14.01,2013-03-20 18:48:00,
2013-03-20 13:52:00,30.4,9.0,30.26,NNW,328,10.5,10.5,40,0.00,,CLR,0.00,VWS V14.01,2013-03-20 18:52:00,
2013-03-20 13:53:00,30.4,9.0,30.26,NNW,333,8.7,10.5,40,0.00,,CLR,0.00,VWS V14.01,2013-03-20 18:53:00,
2013-03-20 13:58:00,31.8,10.3,30.26,NNW,330,11.0,11.0,40,0.00,,CLR,0.00,VWS V14.01,2013-03-20 18:58:00,
2013-03-20 13:59:00,32.2,10.6,30.26,WNW,297,13.2,13.2,40,0.00,,CLR,0.00,VWS V14.01,2013-03-20 18:59:00,
2013-03-20 14:00:00,32.0,10.4,30.26,NNW,329,15.0,15.0,40,0.00,,CLR,0.00,VWS V14.01,2013-03-20 19:00:00,
2013-03-20 14:03:00,31.6,10.1,30.26,West,268,11.9,11.9,40,0.00,,CLR,0.00,VWS V14.01,2013-03-20 19:03:00,
2013-03-20 14:04:00,31.8,10.3,30.26,NW,314,14.5,14.5,40,0.00,,CLR,0.00,VWS V14.01,2013-03-20 19:04:00,
2013-03-20 14:05:00,32.0,10.4,30.26,WNW,302,9.2,9.2,40,0.00,,CLR,0.00,VWS V14.01,2013-03-20 19:05:00,
2013-03-20 14:08:00,31.8,10.3,30.23,NW,324,15.4,15.4,40,0.00,,CLR,0.00,VWS V14.01,2013-03-20 19:08:00,
2013-03-20 14:09:00,32.0,10.4,30.23,NW,315,17.4,17.4,40,0.00,,CLR,0.00,VWS V14.01,2013-03-20 19:09:00,
2013-03-20 14:11:00,31.1,9.6,30.23,NW,309,15.0,15.0,40,0.00,,CLR,0.00,VWS V14.01,2013-03-20 19:11:00,
2013-03-20 14:13:00,31.1,9.6,30.23,NW,320,19.7,22.8,40,0.00,,CLR,0.00,VWS V14.01,2013-03-20 19:13:00,
2013-03-20 14:14:00,31.1,9.6,30.23,WNW,302,13.2,15.9,40,0.00,,CLR,0.00,VWS V14.01,2013-03-20 19:14:00,
2013-03-20 14:15:00,31.1,9.6,30.23,WNW,302,13.2,15.9,40,0.00,,CLR,0.00,VWS V14.01,2013-03-20 19:15:00,
2013-03-20 14:17:00,31.3,9.8,30.23,NW,309,12.8,12.8,40,0.00,,CLR,0.00,VWS V14.01,2013-03-20 19:17:00,
2013-03-20 14:19:00,31.6,10.1,30.23,NW,316,10.1,10.5,40,0.00,,CLR,0.00,VWS V14.01,2013-03-20 19:19:00,
2013-03-20 14:20:00,31.6,10.1,30.23,NW,313,12.8,16.8,40,0.00,,CLR,0.00,VWS V14.01,2013-03-20 19:20:00,
2013-03-20 14:22:00,32.5,10.9,30.23,NW,308,11.0,11.0,40,0.00,,CLR,0.00,VWS V14.01,2013-03-20 19:22:00,
2013-03-20 14:24:00,32.5,10.9,30.23,NW,319,13.2,13.2,40,0.00,,CLR,0.00,VWS V14.01,2013-03-20 19:24:00,
2013-03-20 14:25:00,32.5,10.9,30.23,NW,317,12.3,12.3,40,0.00,,CLR,0.00,VWS V14.01,2013-03-20 19:25:00,
2013-03-20 14:28:00,32.2,10.6,30.23,WNW,303,14.1,15.4,40,0.00,,CLR,0.00,VWS V14.01,2013-03-20 19:28:00,
2013-03-20 14:29:00,32.4,10.8,30.23,NW,325,8.1,8.1,40,0.00,,CLR,0.00,VWS V14.01,2013-03-20 19:29:00,
2013-03-20 14:30:00,32.5,10.9,30.23,West,260,8.7,8.7,40,0.00,,CLR,0.00,VWS V14.01,2013-03-20 19:30:00,
2013-03-20 14:31:00,32.7,11.1,30.23,WNW,303,7.2,8.7,40,0.00,,CLR,0.00,VWS V14.01,2013-03-20 19:31:00,
2013-03-20 14:33:00,32.9,11.2,30.23,NNW,332,9.2,10.1,40,0.00,,CLR,0.00,VWS V14.01,2013-03-20 19:33:00,
2013-03-20 14:35:00,33.1,11.4,30.23,WNW,284,11.0,15.0,40,0.00,,CLR,0.00,VWS V14.01,2013-03-20 19:35:00,
2013-03-20 14:36:00,33.1,11.4,30.23,WNW,303,13.6,17.4,40,0.00,,CLR,0.00,VWS V14.01,2013-03-20 19:36:00,
2013-03-20 14:38:00,32.4,10.8,30.23,NW,320,21.9,21.9,40,0.00,,CLR,0.00,VWS V14.01,2013-03-20 19:38:00,
2013-03-20 14:40:00,32.7,11.1,30.23,NW,314,10.1,12.8,40,0.00,,CLR,0.00,VWS V14.01,2013-03-20 19:40:00,
2013-03-20 14:41:00,32.7,11.1,30.23,NW,307,9.6,10.1,40,0.00,,CLR,0.00,VWS V14.01,2013-03-20 19:41:00,
2013-03-20 14:43:00,33.1,11.4,30.23,NW,311,13.2,14.5,40,0.00,,CLR,0.00,VWS V14.01,2013-03-20 19:43:00,
2013-03-20 14:44:00,33.3,11.6,30.23,NW,320,15.9,15.9,40,0.00,,CLR,0.00,VWS V14.01,2013-03-20 19:44:00,
2013-03-20 14:45:00,33.3,11.6,30.23,WNW,297,8.3,13.2,40,0.00,,CLR,0.00,VWS V14.01,2013-03-20 19:45:00,
2013-03-20 14:47:00,33.3,11.6,30.23,NW,313,17.4,17.4,40,0.00,,CLR,0.00,VWS V14.01,2013-03-20 19:47:00,
2013-03-20 14:48:00,33.1,11.4,30.23,WNW,291,12.8,12.8,40,0.00,,CLR,0.00,VWS V14.01,2013-03-20 19:48:00,
2013-03-20 14:49:00,33.1,11.4,30.23,West,279,8.7,12.8,40,0.00,,CLR,0.00,VWS V14.01,2013-03-20 19:49:00,
2013-03-20 14:51:00,33.1,11.4,30.23,NW,320,10.1,15.4,40,0.00,,CLR,0.00,VWS V14.01,2013-03-20 19:51:00,
2013-03-20 14:52:00,33.1,11.4,30.23,NW,317,23.7,23.7,40,0.00,,CLR,0.00,VWS V14.01,2013-03-20 19:52:00,
2013-03-20 14:54:00,32.7,11.1,30.23,NW,326,19.7,19.7,40,0.00,,CLR,0.00,VWS V14.01,2013-03-20 19:54:00,
2013-03-20 14:56:00,32.5,10.9,30.23,NW,322,17.4,19.7,40,0.00,,CLR,0.00,VWS V14.01,2013-03-20 19:56:00,
2013-03-20 14:58:00,32.4,10.8,30.23,NNW,334,17.0,18.8,40,0.00,,CLR,0.00,VWS V14.01,2013-03-20 19:58:00,
2013-03-20 14:59:00,32.7,11.1,30.23,NW,319,11.0,11.0,40,0.00,,CLR,0.00,VWS V14.01,2013-03-20 19:59:00,
2013-03-20 15:00:00,32.9,11.2,30.23,NW,311,6.7,6.7,40,0.00,,CLR,0.00,VWS V14.01,2013-03-20 20:00:00,
2013-03-20 15:02:00,33.4,11.7,30.23,NW,321,13.2,13.2,40,0.00,,CLR,0.00,VWS V14.01,2013-03-20 20:02:00,
2013-03-20 15:03:00,33.6,11.9,30.23,NW,312,9.6,10.5,40,0.00,,CLR,0.00,VWS V14.01,2013-03-20 20:03:00,
2013-03-20 15:04:00,33.8,12.1,30.23,NNW,345,10.1,10.1,40,0.00,,CLR,0.00,VWS V14.01,2013-03-20 20:04:00,
2013-03-20 15:05:00,34.0,12.2,30.23,NW,310,16.3,19.2,40,0.00,,CLR,0.00,VWS V14.01,2013-03-20 20:05:00,
2013-03-20 15:08:00,33.1,11.4,30.20,NW,316,15.4,17.9,40,0.00,,CLR,0.00,VWS V14.01,2013-03-20 20:08:00,
2013-03-20 15:09:00,32.9,11.2,30.20,NW,320,24.2,24.2,40,0.00,,CLR,0.00,VWS V14.01,2013-03-20 20:09:00,
2013-03-20 15:10:00,32.9,11.2,30.20,NW,326,12.8,12.8,40,0.00,,CLR,0.00,VWS V14.01,2013-03-20 20:10:00,
2013-03-20 15:11:00,32.9,11.2,30.20,WNW,303,12.8,13.2,40,0.00,,CLR,0.00,VWS V14.01,2013-03-20 20:11:00,
2013-03-20 15:13:00,33.3,11.6,30.20,NW,318,13.2,15.4,40,0.00,,CLR,0.00,VWS V14.01,2013-03-20 20:13:00,
2013-03-20 15:14:00,33.3,11.6,30.20,NW,307,15.4,15.4,40,0.00,,CLR,0.00,VWS V14.01,2013-03-20 20:14:00,
2013-03-20 15:16:00,33.1,11.4,30.20,NW,319,21.5,21.5,40,0.00,,CLR,0.00,VWS V14.01,2013-03-20 20:16:00,
2013-03-20 15:17:00,33.1,11.4,30.20,NW,304,15.9,15.9,40,0.00,,CLR,0.00,VWS V14.01,2013-03-20 20:17:00,
2013-03-20 15:19:00,33.4,11.7,30.20,WNW,285,10.5,10.5,40,0.00,,CLR,0.00,VWS V14.01,2013-03-20 20:19:00,
2013-03-20 15:20:00,33.6,11.9,30.20,WNW,292,8.1,9.6,40,0.00,,CLR,0.00,VWS V14.01,2013-03-20 20:20:00,
2013-03-20 15:23:00,34.3,12.5,30.20,NW,322,12.8,12.8,40,0.00,,CLR,0.00,VWS V14.01,2013-03-20 20:23:00,
2013-03-20 15:24:00,34.2,12.4,30.20,NW,306,14.5,18.3,40,0.00,,CLR,0.00,VWS V14.01,2013-03-20 20:24:00,
2013-03-20 15:25:00,34.0,12.2,30.20,West,279,12.8,15.4,40,0.00,,CLR,0.00,VWS V14.01,2013-03-20 20:25:00,
2013-03-20 15:28:00,34.2,12.4,30.20,NW,325,11.4,15.0,40,0.00,,CLR,0.00,VWS V14.01,2013-03-20 20:28:00,
2013-03-20 15:29:00,34.3,12.5,30.20,NW,321,15.0,15.4,40,0.00,,CLR,0.00,VWS V14.01,2013-03-20 20:29:00,
2013-03-20 15:30:00,34.3,12.5,30.20,NW,321,10.1,14.5,40,0.00,,CLR,0.00,VWS V14.01,2013-03-20 20:30:00,
2013-03-20 15:33:00,34.0,12.2,30.20,NW,326,8.3,8.3,40,0.00,,CLR,0.00,VWS V14.01,2013-03-20 20:33:00,
2013-03-20 15:34:00,33.4,11.7,30.20,West,276,7.6,13.2,40,0.00,,CLR,0.00,VWS V14.01,2013-03-20 20:34:00,
2013-03-20 15:36:00,33.3,11.6,30.20,NW,322,10.5,10.5,40,0.00,,CLR,0.00,VWS V14.01,2013-03-20 20:36:00,
2013-03-20 15:38:00,31.8,10.3,30.20,WNW,284,10.5,13.6,40,0.00,,CLR,0.00,VWS V14.01,2013-03-20 20:38:00,
2013-03-20 15:39:00,31.8,10.3,30.20,WNW,283,11.0,13.2,40,0.00,,CLR,0.00,VWS V14.01,2013-03-20 20:39:00,
2013-03-20 15:40:00,31.8,10.3,30.20,NW,315,13.6,13.6,40,0.00,,CLR,0.00,VWS V14.01,2013-03-20 20:40:00,
2013-03-20 15:41:00,32.0,10.4,30.20,WNW,284,10.5,11.0,40,0.00,,CLR,0.00,VWS V14.01,2013-03-20 20:41:00,
2013-03-20 15:44:00,31.1,9.6,30.20,WNW,293,8.7,11.0,40,0.00,,CLR,0.00,VWS V14.01,2013-03-20 20:44:00,
2013-03-20 15:45:00,31.1,9.6,30.20,NW,304,10.1,11.0,40,0.00,,CLR,0.00,VWS V14.01,2013-03-20 20:45:00,
2013-03-20 15:47:00,31.1,9.6,30.20,NW,314,15.0,17.4,40,0.00,,CLR,0.00,VWS V14.01,2013-03-20 20:47:00,
2013-03-20 15:50:00,31.1,9.6,30.20,WNW,290,7.6,15.4,40,0.00,,CLR,0.00,VWS V14.01,2013-03-20 20:50:00,
2013-03-20 15:51:00,31.8,10.3,30.20,NW,310,8.7,8.7,40,0.00,,CLR,0.00,VWS V14.01,2013-03-20 20:51:00,
2013-03-20 15:52:00,32.5,10.9,30.20,NW,308,8.3,8.3,40,0.00,,CLR,0.00,VWS V14.01,2013-03-20 20:52:00,
2013-03-20 15:56:00,33.3,11.6,30.20,NW,324,15.4,15.4,40,0.00,,CLR,0.00,VWS V14.01,2013-03-20 20:56:00,
2013-03-20 15:57:00,33.1,11.4,30.20,WNW,289,10.1,15.4,40,0.00,,CLR,0.00,VWS V14.01,2013-03-20 20:57:00,
2013-03-20 16:01:00,32.9,11.2,30.20,WSW,258,8.7,11.0,40,0.00,,CLR,0.00,VWS V14.01,2013-03-20 21:01:00,
2013-03-20 16:02:00,33.1,11.4,30.20,WNW,299,7.6,8.1,40,0.00,,CLR,0.00,VWS V14.01,2013-03-20 21:02:00,
2013-03-20 16:06:00,33.8,12.1,30.20,NW,318,13.2,15.0,40,0.00,,CLR,0.00,VWS V14.01,2013-03-20 21:06:00,
2013-03-20 16:07:00,33.8,12.1,30.20,NW,307,14.5,15.9,40,0.00,,CLR,0.00,VWS V14.01,2013-03-20 21:07:00,
2013-03-20 16:11:00,34.2,12.4,30.17,West,281,9.6,9.6,40,0.00,,CLR,0.00,VWS V14.01,2013-03-20 21:11:00,
2013-03-20 16:12:00,34.3,12.5,30.17,NW,324,10.5,10.5,40,0.00,,CLR,0.00,VWS V14.01,2013-03-20 21:12:00,
2013-03-20 16:13:00,34.3,12.5,30.17,NW,322,19.7,19.7,40,0.00,,CLR,0.00,VWS V14.01,2013-03-20 21:13:00,
2013-03-20 16:17:00,32.9,11.2,30.17,NW,324,13.2,13.6,40,0.00,,CLR,0.00,VWS V14.01,2013-03-20 21:17:00,
2013-03-20 16:18:00,32.9,11.2,30.17,NW,310,13.2,13.6,40,0.00,,CLR,0.00,VWS V14.01,2013-03-20 21:18:00,
2013-03-20 16:19:00,32.7,11.1,30.17,NW,310,12.8,12.8,40,0.00,,CLR,0.00,VWS V14.01,2013-03-20 21:19:00,
2013-03-20 16:23:00,33.1,11.4,30.17,NW,313,13.2,15.9,40,0.00,,CLR,0.00,VWS V14.01,2013-03-20 21:23:00,
2013-03-20 16:24:00,32.9,11.2,30.17,NW,322,15.4,17.9,40,0.00,,CLR,0.00,VWS V14.01,2013-03-20 21:24:00,
2013-03-20 16:25:00,32.7,11.1,30.17,WNW,301,11.4,12.8,40,0.00,,CLR,0.00,VWS V14.01,2013-03-20 21:25:00,
2013-03-20 16:28:00,32.7,11.1,30.17,NW,315,13.2,13.6,40,0.00,,CLR,0.00,VWS V14.01,2013-03-20 21:28:00,
2013-03-20 16:29:00,32.7,11.1,30.17,NW,313,15.0,15.0,40,0.00,,CLR,0.00,VWS V14.01,2013-03-20 21:29:00,
2013-03-20 16:31:00,33.3,11.6,30.17,NW,316,15.4,15.4,40,0.00,,CLR,0.00,VWS V14.01,2013-03-20 21:31:00,
2013-03-20 16:33:00,32.9,11.2,30.17,NNW,329,19.7,22.4,40,0.00,,CLR,0.00,VWS V14.01,2013-03-20 21:33:00,
2013-03-20 16:34:00,33.1,11.4,30.17,NW,324,16.3,22.4,40,0.00,,CLR,0.00,VWS V14.01,2013-03-20 21:34:00,
2013-03-20 16:36:00,33.3,11.6,30.17,NW,314,15.4,15.9,40,0.00,,CLR,0.00,VWS V14.01,2013-03-20 21:36:00,
2013-03-20 16:39:00,32.9,11.2,30.17,NW,321,13.2,14.5,40,0.00,,CLR,0.00,VWS V14.01,2013-03-20 21:39:00,
2013-03-20 16:41:00,32.9,11.2,30.17,NW,313,15.4,18.3,40,0.00,,CLR,0.00,VWS V14.01,2013-03-20 21:41:00,
2013-03-20 16:44:00,32.5,10.9,30.17,NW,321,12.8,17.4,40,0.00,,CLR,0.00,VWS V14.01,2013-03-20 21:44:00,
2013-03-20 16:45:00,32.7,11.1,30.17,NW,320,15.0,17.4,40,0.00,,CLR,0.00,VWS V14.01,2013-03-20 21:45:00,
2013-03-20 16:46:00,33.1,11.4,30.17,WNW,300,8.7,8.7,40,0.00,,CLR,0.00,VWS V14.01,2013-03-20 21:46:00,
2013-03-20 16:49:00,33.4,11.7,30.17,NW,313,11.0,11.0,40,0.00,,CLR,0.00,VWS V14.01,2013-03-20 21:49:00,
2013-03-20 16:50:00,33.6,11.9,30.17,NNW,332,10.5,12.8,40,0.00,,CLR,0.00,VWS V14.01,2013-03-20 21:50:00,
2013-03-20 16:52:00,33.4,11.7,30.17,NW,326,17.0,17.0,40,0.00,,CLR,0.00,VWS V14.01,2013-03-20 21:52:00,
2013-03-20 16:54:00,33.1,11.4,30.17,WNW,282,11.0,13.2,40,0.00,,CLR,0.00,VWS V14.01,2013-03-20 21:54:00,
2013-03-20 16:55:00,33.3,11.6,30.17,West,273,8.1,13.2,40,0.00,,CLR,0.00,VWS V14.01,2013-03-20 21:55:00,
2013-03-20 16:59:00,33.8,12.1,30.17,WNW,302,8.3,12.3,40,0.00,,CLR,0.00,VWS V14.01,2013-03-20 21:59:00,
2013-03-20 17:00:00,34.0,12.2,30.17,WNW,283,8.7,10.1,40,0.00,,CLR,0.00,VWS V14.01,2013-03-20 22:00:00,
2013-03-20 17:01:00,34.0,12.2,30.17,NW,312,8.3,8.7,40,0.00,,CLR,0.00,VWS V14.01,2013-03-20 22:01:00,
2013-03-20 17:04:00,34.5,12.7,30.17,WNW,292,8.3,8.7,40,0.00,,CLR,0.00,VWS V14.01,2013-03-20 22:04:00,
2013-03-20 17:06:00,34.9,13.0,30.17,NW,318,10.1,11.0,40,0.00,,CLR,0.00,VWS V14.01,2013-03-20 22:06:00,
2013-03-20 17:07:00,34.9,13.0,30.17,NW,311,12.3,12.8,40,0.00,,CLR,0.00,VWS V14.01,2013-03-20 22:07:00,
2013-03-20 17:09:00,34.3,12.5,30.17,WNW,302,11.9,12.3,40,0.00,,CLR,0.00,VWS V14.01,2013-03-20 22:09:00,
2013-03-20 17:11:00,34.0,12.2,30.17,North,357,10.5,10.5,40,0.00,,CLR,0.00,VWS V14.01,2013-03-20 22:11:00,
2013-03-20 17:12:00,33.8,12.1,30.17,NNW,340,15.0,16.3,40,0.00,,CLR,0.00,VWS V14.01,2013-03-20 22:12:00,
2013-03-20 17:15:00,33.4,11.7,30.17,NW,320,14.1,14.1,40,0.00,,CLR,0.00,VWS V14.01,2013-03-20 22:15:00,
2013-03-20 17:16:00,33.6,11.9,30.17,NW,326,11.0,15.4,40,0.00,,CLR,0.00,VWS V14.01,2013-03-20 22:16:00,
2013-03-20 17:17:00,33.6,11.9,30.17,NNW,340,11.4,15.4,40,0.00,,CLR,0.00,VWS V14.01,2013-03-20 22:17:00,
2013-03-20 17:21:00,33.6,11.9,30.17,NW,313,12.8,12.8,40,0.00,,CLR,0.00,VWS V14.01,2013-03-20 22:21:00,
2013-03-20 17:22:00,33.4,11.7,30.17,NW,320,15.0,15.0,40,0.00,,CLR,0.00,VWS V14.01,2013-03-20 22:22:00,
2013-03-20 17:23:00,33.3,11.6,30.17,NW,317,17.4,19.2,40,0.00,,CLR,0.00,VWS V14.01,2013-03-20 22:23:00,
2013-03-20 17:26:00,33.3,11.6,30.17,NW,309,13.2,13.2,40,0.00,,CLR,0.00,VWS V14.01,2013-03-20 22:26:00,
2013-03-20 17:27:00,33.3,11.6,30.17,NW,315,13.2,13.2,40,0.00,,CLR,0.00,VWS V14.01,2013-03-20 22:27:00,
2013-03-20 17:28:00,33.3,11.6,30.17,NNW,331,13.6,15.0,40,0.00,,CLR,0.00,VWS V14.01,2013-03-20 22:28:00,
2013-03-20 17:32:00,31.1,9.6,30.17,NW,326,12.8,16.3,40,0.00,,CLR,0.00,VWS V14.01,2013-03-20 22:32:00,
2013-03-20 17:33:00,30.7,9.3,30.17,NW,315,16.3,16.3,40,0.00,,CLR,0.00,VWS V14.01,2013-03-20 22:33:00,
2013-03-20 17:34:00,30.7,9.3,30.17,NW,314,15.9,19.7,40,0.00,,CLR,0.00,VWS V14.01,2013-03-20 22:34:00,
2013-03-20 17:38:00,31.1,9.6,30.17,NW,316,10.5,15.4,40,0.00,,CLR,0.00,VWS V14.01,2013-03-20 22:38:00,
2013-03-20 17:39:00,31.5,9.9,30.17,NNW,328,12.8,12.8,40,0.00,,CLR,0.00,VWS V14.01,2013-03-20 22:39:00,
2013-03-20 17:43:00,31.5,9.9,30.17,NW,318,16.8,16.8,40,0.00,,CLR,0.00,VWS V14.01,2013-03-20 22:43:00,
2013-03-20 17:44:00,31.1,9.6,30.17,WNW,293,15.4,15.4,40,0.00,,CLR,0.00,VWS V14.01,2013-03-20 22:44:00,
2013-03-20 17:48:00,31.1,9.6,30.17,NW,316,11.9,16.8,40,0.00,,CLR,0.00,VWS V14.01,2013-03-20 22:48:00,
2013-03-20 17:49:00,31.3,9.8,30.17,NW,320,15.0,15.0,40,0.00,,CLR,0.00,VWS V14.01,2013-03-20 22:49:00,
2013-03-20 17:50:00,31.3,9.8,30.17,NW,318,14.1,15.0,40,0.00,,CLR,0.00,VWS V14.01,2013-03-20 22:50:00,
2013-03-20 17:54:00,31.1,9.6,30.17,NW,312,12.8,13.2,40,0.00,,CLR,0.00,VWS V14.01,2013-03-20 22:54:00,
2013-03-20 17:55:00,31.5,9.9,30.17,NW,317,10.5,12.8,40,0.00,,CLR,0.00,VWS V14.01,2013-03-20 22:55:00,
2013-03-20 18:00:00,31.6,10.1,30.17,NNW,327,14.5,22.8,40,0.00,,CLR,0.00,VWS V14.01,2013-03-20 23:00:00,
2013-03-20 18:01:00,31.6,10.1,30.17,NW,315,15.4,19.7,40,0.00,,CLR,0.00,VWS V14.01,2013-03-20 23:01:00,
2013-03-20 18:05:00,30.6,9.1,30.17,NW,323,12.8,15.4,40,0.00,,CLR,0.00,VWS V14.01,2013-03-20 23:05:00,
2013-03-20 18:06:00,30.2,8.8,30.17,NW,323,15.0,15.0,40,0.00,,CLR,0.00,VWS V14.01,2013-03-20 23:06:00,
2013-03-20 18:10:00,29.5,8.1,30.17,NW,316,12.3,12.3,40,0.00,,CLR,0.00,VWS V14.01,2013-03-20 23:10:00,
2013-03-20 18:12:00,29.7,8.3,30.17,NW,317,8.1,10.5,40,0.00,,CLR,0.00,VWS V14.01,2013-03-20 23:12:00,
2013-03-20 18:15:00,30.0,8.6,30.17,NNW,341,20.6,20.6,40,0.00,,CLR,0.00,VWS V14.01,2013-03-20 23:15:00,
2013-03-20 18:17:00,30.4,9.0,30.17,NW,313,12.8,12.8,40,0.00,,CLR,0.00,VWS V14.01,2013-03-20 23:17:00,
2013-03-20 18:20:00,30.6,9.1,30.17,NNW,331,17.4,17.4,40,0.00,,CLR,0.00,VWS V14.01,2013-03-20 23:20:00,
2013-03-20 18:21:00,30.6,9.1,30.17,NNW,335,15.4,17.4,40,0.00,,CLR,0.00,VWS V14.01,2013-03-20 23:21:00,
2013-03-20 18:22:00,30.4,9.0,30.17,NNW,327,15.0,17.0,40,0.00,,CLR,0.00,VWS V14.01,2013-03-20 23:22:00,
2013-03-20 18:25:00,30.6,9.1,30.17,NW,311,12.8,13.2,40,0.00,,CLR,0.00,VWS V14.01,2013-03-20 23:25:00,
2013-03-20 18:26:00,30.6,9.1,30.17,WNW,303,13.2,13.2,40,0.00,,CLR,0.00,VWS V14.01,2013-03-20 23:26:00,
2013-03-20 18:27:00,30.6,9.1,30.17,NW,323,12.3,13.2,40,0.00,,CLR,0.00,VWS V14.01,2013-03-20 23:27:00,
2013-03-20 18:28:00,30.6,9.1,30.17,NW,307,11.9,16.3,40,0.00,,CLR,0.00,VWS V14.01,2013-03-20 23:28:00,
2013-03-20 18:30:00,30.6,9.1,30.17,NW,325,11.9,11.9,40,0.00,,CLR,0.00,VWS V14.01,2013-03-20 23:30:00,
2013-03-20 18:31:00,30.6,9.1,30.17,NW,325,10.5,12.3,40,0.00,,CLR,0.00,VWS V14.01,2013-03-20 23:31:00,
2013-03-20 18:33:00,30.6,9.1,30.17,NNW,331,11.9,12.8,40,0.00,,CLR,0.00,VWS V14.01,2013-03-20 23:33:00,
2013-03-20 18:34:00,30.6,9.1,30.17,NW,317,12.3,12.8,40,0.00,,CLR,0.00,VWS V14.01,2013-03-20 23:34:00,
2013-03-20 18:36:00,30.4,9.0,30.17,NW,326,13.6,13.6,40,0.00,,CLR,0.00,VWS V14.01,2013-03-20 23:36:00,
2013-03-20 18:38:00,30.2,8.8,30.17,NW,321,11.0,11.0,40,0.00,,CLR,0.00,VWS V14.01,2013-03-20 23:38:00,
2013-03-20 18:39:00,30.2,8.8,30.14,NW,318,12.3,13.2,40,0.00,,CLR,0.00,VWS V14.01,2013-03-20 23:39:00,
2013-03-20 18:40:00,30.2,8.8,30.14,NNW,328,5.8,12.3,40,0.00,,CLR,0.00,VWS V14.01,2013-03-20 23:40:00,
2013-03-20 18:42:00,30.0,8.6,30.14,NW,307,12.3,15.0,40,0.00,,CLR,0.00,VWS V14.01,2013-03-20 23:42:00,
2013-03-20 18:43:00,30.0,8.6,30.14,NW,325,15.0,15.0,40,0.00,,CLR,0.00,VWS V14.01,2013-03-20 23:43:00,
2013-03-20 18:44:00,29.8,8.5,30.14,NW,326,13.2,13.2,40,0.00,,CLR,0.00,VWS V14.01,2013-03-20 23:44:00,
2013-03-20 18:45:00,29.8,8.5,30.14,NW,322,15.0,17.4,40,0.00,,CLR,0.00,VWS V14.01,2013-03-20 23:45:00,
2013-03-20 18:47:00,29.8,8.5,30.14,NW,323,10.5,11.0,40,0.00,,CLR,0.00,VWS V14.01,2013-03-20 23:47:00,
2013-03-20 18:48:00,29.7,8.3,30.14,NW,315,12.3,12.3,40,0.00,,CLR,0.00,VWS V14.01,2013-03-20 23:48:00,
2013-03-20 18:49:00,29.7,8.3,30.14,NW,318,10.5,10.5,40,0.00,,CLR,0.00,VWS V14.01,2013-03-20 23:49:00,
2013-03-20 18:50:00,29.7,8.3,30.14,NW,324,15.0,15.9,40,0.00,,CLR,0.00,VWS V14.01,2013-03-20 23:50:00,
2013-03-20 18:52:00,29.5,8.1,30.14,NW,316,12.8,13.2,40,0.00,,CLR,0.00,VWS V14.01,2013-03-20 23:52:00,
2013-03-20 18:54:00,29.3,8.0,30.14,WNW,303,10.5,13.2,40,0.00,,CLR,0.00,VWS V14.01,2013-03-20 23:54:00,
2013-03-20 18:55:00,29.1,7.8,30.14,NW,310,13.2,15.0,40,0.00,,CLR,0.00,VWS V14.01,2013-03-20 23:55:00,
2013-03-20 18:57:00,28.9,7.7,30.14,NNW,327,15.0,15.0,40,0.00,,CLR,0.00,VWS V14.01,2013-03-20 23:57:00,
2013-03-20 18:59:00,28.8,7.5,30.14,NNW,330,15.4,15.4,40,0.00,,CLR,0.00,VWS V14.01,2013-03-20 23:59:00,
2013-03-20 19:00:00,28.8,7.5,30.14,NNW,341,10.1,15.4,40,0.00,,CLR,0.00,VWS V14.01,2013-03-21 00:00:00,
2013-03-20 19:01:00,28.8,7.5,30.14,NW,322,10.5,10.5,40,0.00,,CLR,0.00,VWS V14.01,2013-03-21 00:01:00,
2013-03-20 19:03:00,28.6,7.3,30.14,NW,314,7.6,10.5,40,0.00,,CLR,0.00,VWS V14.01,2013-03-21 00:03:00,
2013-03-20 19:04:00,28.4,8.2,30.14,NW,307,8.3,11.0,42,0.00,,CLR,0.00,VWS V14.01,2013-03-21 00:04:00,
2013-03-20 19:05:00,28.4,8.2,30.14,NW,323,10.1,10.1,42,0.00,,CLR,0.00,VWS V14.01,2013-03-21 00:05:00,
2013-03-20 19:07:00,28.2,8.1,30.14,NW,304,8.7,12.3,42,0.00,,CLR,0.00,VWS V14.01,2013-03-21 00:07:00,
2013-03-20 19:08:00,28.0,7.9,30.14,NW,313,12.3,12.3,42,0.00,,CLR,0.00,VWS V14.01,2013-03-21 00:08:00,
2013-03-20 19:10:00,27.9,7.8,30.14,NW,317,8.3,8.7,42,0.00,,CLR,0.00,VWS V14.01,2013-03-21 00:10:00,
2013-03-20 19:11:00,27.7,7.6,30.14,NW,325,9.6,11.0,42,0.00,,CLR,0.00,VWS V14.01,2013-03-21 00:11:00,
2013-03-20 19:12:00,27.9,7.8,30.14,NW,325,9.6,11.0,42,0.00,,CLR,0.00,VWS V14.01,2013-03-21 00:12:00,
2013-03-20 19:13:00,27.9,7.8,30.14,NW,312,11.0,13.6,42,0.00,,CLR,0.00,VWS V14.01,2013-03-21 00:13:00,
2013-03-20 19:16:00,27.5,7.4,30.14,NW,315,10.5,12.8,42,0.00,,CLR,0.00,VWS V14.01,2013-03-21 00:16:00,
2013-03-20 19:17:00,27.7,7.6,30.14,NNW,332,12.8,12.8,42,0.00,,CLR,0.00,VWS V14.01,2013-03-21 00:17:00,
2013-03-20 19:18:00,27.5,7.4,30.14,NNW,332,10.5,10.5,42,0.00,,CLR,0.00,VWS V14.01,2013-03-21 00:18:00,
2013-03-20 19:19:00,27.3,7.3,30.14,WNW,302,11.0,11.0,42,0.00,,CLR,0.00,VWS V14.01,2013-03-21 00:19:00,
2013-03-20 19:21:00,27.1,7.1,30.14,NW,314,12.3,13.6,42,0.00,,CLR,0.00,VWS V14.01,2013-03-21 00:21:00,
2013-03-20 19:23:00,27.1,7.1,30.14,NNW,332,11.0,11.0,42,0.00,,CLR,0.00,VWS V14.01,2013-03-21 00:23:00,
2013-03-20 19:24:00,27.1,7.1,30.14,NW,319,10.5,11.0,42,0.00,,CLR,0.00,VWS V14.01,2013-03-21 00:24:00,
2013-03-20 19:27:00,27.0,6.9,30.14,NNW,329,9.6,10.5,42,0.00,,CLR,0.00,VWS V14.01,2013-03-21 00:27:00,
2013-03-20 19:29:00,27.0,6.9,30.14,NW,322,7.6,11.0,42,0.00,,CLR,0.00,VWS V14.01,2013-03-21 00:29:00,
2013-03-20 19:33:00,26.8,6.8,30.14,NNW,330,10.5,15.0,42,0.00,,CLR,0.00,VWS V14.01,2013-03-21 00:33:00,
2013-03-20 19:34:00,26.8,6.8,30.14,NW,320,10.1,15.0,42,0.00,,CLR,0.00,VWS V14.01,2013-03-21 00:34:00,
2013-03-20 19:35:00,26.8,6.8,30.14,NW,321,7.6,10.5,42,0.00,,CLR,0.00,VWS V14.01,2013-03-21 00:35:00,
2013-03-20 19:38:00,26.8,6.8,30.14,NW,311,10.5,12.8,42,0.00,,CLR,0.00,VWS V14.01,2013-03-21 00:38:00,
2013-03-20 19:39:00,26.6,6.6,30.14,NW,321,10.5,10.5,42,0.00,,CLR,0.00,VWS V14.01,2013-03-21 00:39:00,
2013-03-20 19:40:00,26.8,6.8,30.14,NW,321,8.3,8.3,42,0.00,,CLR,0.00,VWS V14.01,2013-03-21 00:40:00,
2013-03-20 19:41:00,26.6,6.6,30.14,NW,323,11.0,13.2,42,0.00,,CLR,0.00,VWS V14.01,2013-03-21 00:41:00,
2013-03-20 19:43:00,26.8,6.8,30.14,NNW,331,11.9,11.9,42,0.00,,CLR,0.00,VWS V14.01,2013-03-21 00:43:00,
2013-03-20 19:44:00,26.6,6.6,30.14,NW,312,13.2,13.2,42,0.00,,CLR,0.00,VWS V14.01,2013-03-21 00:44:00,
2013-03-20 19:46:00,26.6,6.6,30.14,NW,324,13.2,13.2,42,0.00,,CLR,0.00,VWS V14.01,2013-03-21 00:46:00,
2013-03-20 19:47:00,26.6,6.6,30.14,NW,321,10.1,13.2,42,0.00,,CLR,0.00,VWS V14.01,2013-03-21 00:47:00,
2013-03-20 19:48:00,26.6,6.6,30.14,NNW,328,8.7,11.0,42,0.00,,CLR,0.00,VWS V14.01,2013-03-21 00:48:00,
2013-03-20 19:50:00,26.6,6.6,30.14,NNW,329,7.6,12.3,42,0.00,,CLR,0.00,VWS V14.01,2013-03-21 00:50:00,
2013-03-20 19:51:00,26.6,6.6,30.14,NW,318,7.6,8.3,42,0.00,,CLR,0.00,VWS V14.01,2013-03-21 00:51:00,
2013-03-20 19:52:00,26.4,6.4,30.14,NW,316,8.7,11.0,42,0.00,,CLR,0.00,VWS V14.01,2013-03-21 00:52:00,
2013-03-20 19:54:00,26.4,6.4,30.14,NNW,341,7.6,8.3,42,0.00,,CLR,0.00,VWS V14.01,2013-03-21 00:54:00,
2013-03-20 19:55:00,26.4,6.4,30.14,NNW,328,11.4,11.4,42,0.00,,CLR,0.00,VWS V14.01,2013-03-21 00:55:00,
2013-03-20 19:56:00,26.2,6.3,30.14,NW,326,11.0,11.0,42,0.00,,CLR,0.00,VWS V14.01,2013-03-21 00:56:00,
2013-03-20 19:57:00,26.2,6.3,30.14,NW,316,8.1,10.5,42,0.00,,CLR,0.00,VWS V14.01,2013-03-21 00:57:00,
2013-03-20 20:00:00,26.1,6.1,30.14,NW,326,9.2,9.2,42,0.00,,CLR,0.00,VWS V14.01,2013-03-21 01:00:00,
2013-03-20 20:02:00,26.1,6.1,30.14,NW,323,11.0,12.8,42,0.00,,CLR,0.00,VWS V14.01,2013-03-21 01:02:00,
2013-03-20 20:03:00,26.1,6.1,30.14,NW,322,10.1,10.1,42,0.00,,CLR,0.00,VWS V14.01,2013-03-21 01:03:00,
2013-03-20 20:05:00,26.1,6.1,30.14,NW,326,8.3,8.3,42,0.00,,CLR,0.00,VWS V14.01,2013-03-21 01:05:00,
2013-03-20 20:07:00,26.1,6.1,30.14,NW,324,8.7,11.0,42,0.00,,CLR,0.00,VWS V14.01,2013-03-21 01:07:00,
2013-03-20 20:08:00,25.9,6.0,30.14,NW,319,8.1,9.2,42,0.00,,CLR,0.00,VWS V14.01,2013-03-21 01:08:00,
2013-03-20 20:09:00,26.1,6.1,30.14,NW,323,8.3,9.2,42,0.00,,CLR,0.00,VWS V14.01,2013-03-21 01:09:00,
2013-03-20 20:11:00,25.9,6.0,30.14,NW,319,8.7,10.1,42,0.00,,CLR,0.00,VWS V14.01,2013-03-21 01:11:00,
2013-03-20 20:12:00,25.9,6.0,30.14,NNW,329,9.6,12.3,42,0.00,,CLR,0.00,VWS V14.01,2013-03-21 01:12:00,
2013-03-20 20:13:00,25.9,6.0,30.14,NW,316,10.5,13.6,42,0.00,,CLR,0.00,VWS V14.01,2013-03-21 01:13:00,
2013-03-20 20:14:00,25.9,6.0,30.14,NW,325,10.1,10.1,42,0.00,,CLR,0.00,VWS V14.01,2013-03-21 01:14:00,
2013-03-20 20:17:00,25.7,5.8,30.14,NW,316,10.5,11.0,42,0.00,,CLR,0.00,VWS V14.01,2013-03-21 01:17:00,
2013-03-20 20:18:00,25.7,5.8,30.14,NNW,328,7.6,10.1,42,0.00,,CLR,0.00,VWS V14.01,2013-03-21 01:18:00,
2013-03-20 20:19:00,25.7,5.8,30.14,NW,324,6.3,6.3,42,0.00,,CLR,0.00,VWS V14.01,2013-03-21 01:19:00,
2013-03-20 20:22:00,25.9,6.0,30.14,NW,326,10.1,11.9,42,0.00,,CLR,0.00,VWS V14.01,2013-03-21 01:22:00,
2013-03-20 20:23:00,25.7,5.8,30.14,NW,308,8.1,11.0,42,0.00,,CLR,0.00,VWS V14.01,2013-03-21 01:23:00,
2013-03-20 20:24:00,25.9,6.0,30.14,NW,316,10.5,11.4,42,0.00,,CLR,0.00,VWS V14.01,2013-03-21 01:24:00,
2013-03-20 20:25:00,25.9,6.0,30.14,NNW,329,10.5,11.4,42,0.00,,CLR,0.00,VWS V14.01,2013-03-21 01:25:00,
2013-03-20 20:27:00,25.7,5.8,30.14,NW,320,8.7,9.2,42,0.00,,CLR,0.00,VWS V14.01,2013-03-21 01:27:00,
2013-03-20 20:28:00,25.7,5.8,30.14,NNW,331,9.6,10.5,42,0.00,,CLR,0.00,VWS V14.01,2013-03-21 01:28:00,
2013-03-20 20:30:00,25.7,5.8,30.14,NW,324,13.2,13.2,42,0.00,,CLR,0.00,VWS V14.01,2013-03-21 01:30:00,
2013-03-20 20:33:00,25.5,5.6,30.14,NW,325,10.1,10.1,42,0.00,,CLR,0.00,VWS V14.01,2013-03-21 01:33:00,
2013-03-20 20:35:00,25.5,5.6,30.14,NW,325,10.5,10.5,42,0.00,,CLR,0.00,VWS V14.01,2013-03-21 01:35:00,
2013-03-20 20:38:00,25.5,5.6,30.14,NW,325,8.3,9.6,42,0.00,,CLR,0.00,VWS V14.01,2013-03-21 01:38:00,
2013-03-20 20:39:00,25.3,5.5,30.14,NNW,337,8.1,9.6,42,0.00,,CLR,0.00,VWS V14.01,2013-03-21 01:39:00,
2013-03-20 20:40:00,25.3,5.5,30.14,NW,318,7.6,8.7,42,0.00,,CLR,0.00,VWS V14.01,2013-03-21 01:40:00,
2013-03-20 20:41:00,25.3,5.5,30.14,NNW,344,10.5,10.5,42,0.00,,CLR,0.00,VWS V14.01,2013-03-21 01:41:00,
2013-03-20 20:44:00,25.3,5.5,30.14,NNW,333,7.6,10.5,42,0.00,,CLR,0.00,VWS V14.01,2013-03-21 01:44:00,
2013-03-20 20:45:00,25.3,5.5,30.14,NNW,328,7.2,8.3,42,0.00,,CLR,0.00,VWS V14.01,2013-03-21 01:45:00,
2013-03-20 20:47:00,25.2,5.3,30.14,NNW,346,7.6,8.3,42,0.00,,CLR,0.00,VWS V14.01,2013-03-21 01:47:00,
2013-03-20 20:50:00,25.0,5.1,30.14,North,349,5.8,7.6,42,0.00,,CLR,0.00,VWS V14.01,2013-03-21 01:50:00,
2013-03-20 20:53:00,24.6,5.8,30.14,NNW,331,5.8,6.3,44,0.00,,CLR,0.00,VWS V14.01,2013-03-21 01:53:00,
2013-03-20 20:55:00,24.4,5.7,30.14,NNW,332,6.3,6.3,44,0.00,,CLR,0.00,VWS V14.01,2013-03-21 01:55:00,
2013-03-20 20:56:00,24.4,5.7,30.14,NNW,334,6.7,6.7,44,0.00,,CLR,0.00,VWS V14.01,2013-03-21 01:56:00,
2013-03-20 20:58:00,24.3,5.5,30.14,NNW,328,7.6,7.6,44,0.00,,CLR,0.00,VWS V14.01,2013-03-21 01:58:00,
2013-03-20 21:00:00,24.3,5.5,30.14,NNW,341,7.2,7.2,44,0.00,,CLR,0.00,VWS V14.01,2013-03-21 02:00:00,
2013-03-20 21:01:00,24.3,5.5,30.14,NNW,332,8.3,8.3,44,0.00,,CLR,0.00,VWS V14.01,2013-03-21 02:01:00,
2013-03-20 21:02:00,24.1,5.3,30.14,NNW,332,6.3,8.3,44,0.00,,CLR,0.00,VWS V14.01,2013-03-21 02:02:00,
2013-03-20 21:03:00,24.3,5.5,30.14,NNW,336,6.3,7.6,44,0.00,,CLR,0.00,VWS V14.01,2013-03-21 02:03:00,
2013-03-20 21:06:00,24.3,5.5,30.14,NNW,341,8.1,8.1,44,0.00,,CLR,0.00,VWS V14.01,2013-03-21 02:06:00,
2013-03-20 21:07:00,24.3,5.5,30.14,NNW,343,8.3,8.3,44,0.00,,CLR,0.00,VWS V14.01,2013-03-21 02:07:00,
2013-03-20 21:09:00,24.3,5.5,30.14,NNW,345,8.3,10.5,44,0.00,,CLR,0.00,VWS V14.01,2013-03-21 02:09:00,
2013-03-20 21:11:00,24.3,5.5,30.14,North,0,8.3,10.1,44,0.00,,CLR,0.00,VWS V14.01,2013-03-21 02:11:00,
2013-03-20 21:12:00,24.3,5.5,30.14,North,350,8.7,8.7,44,0.00,,CLR,0.00,VWS V14.01,2013-03-21 02:12:00,
2013-03-20 21:14:00,24.4,5.7,30.14,NNW,329,10.5,10.5,44,0.00,,CLR,0.00,VWS V14.01,2013-03-21 02:14:00,
2013-03-20 21:17:00,24.4,5.7,30.14,NNW,335,11.0,11.0,44,0.00,,CLR,0.00,VWS V14.01,2013-03-21 02:17:00,
2013-03-20 21:18:00,24.6,5.8,30.14,NNW,340,8.7,10.5,44,0.00,,CLR,0.00,VWS V14.01,2013-03-21 02:18:00,
2013-03-20 21:20:00,24.6,5.8,30.14,NNW,333,8.7,8.7,44,0.00,,CLR,0.00,VWS V14.01,2013-03-21 02:20:00,
2013-03-20 21:23:00,24.4,5.7,30.14,NNW,337,6.3,8.3,44,0.00,,CLR,0.00,VWS V14.01,2013-03-21 02:23:00,
2013-03-20 21:24:00,24.3,5.5,30.14,NNW,336,8.1,8.1,44,0.00,,CLR,0.00,VWS V14.01,2013-03-21 02:24:00,
2013-03-20 21:25:00,24.3,5.5,30.14,NNW,339,6.3,8.3,44,0.00,,CLR,0.00,VWS V14.01,2013-03-21 02:25:00,
2013-03-20 21:28:00,24.1,5.3,30.14,NNW,329,8.3,8.3,44,0.00,,CLR,0.00,VWS V14.01,2013-03-21 02:28:00,
2013-03-20 21:29:00,23.9,5.2,30.14,NNW,330,8.3,8.7,44,0.00,,CLR,0.00,VWS V14.01,2013-03-21 02:29:00,
2013-03-20 21:31:00,23.9,5.2,30.14,NNW,331,8.3,10.5,44,0.00,,CLR,0.00,VWS V14.01,2013-03-21 02:31:00,
2013-03-20 21:33:00,23.9,5.2,30.14,NNW,334,8.1,10.1,44,0.00,,CLR,0.00,VWS V14.01,2013-03-21 02:33:00,
2013-03-20 21:35:00,24.1,5.3,30.14,North,353,7.6,8.7,44,0.00,,CLR,0.00,VWS V14.01,2013-03-21 02:35:00,
2013-03-20 21:36:00,23.9,5.2,30.14,NNW,346,7.6,8.1,44,0.00,,CLR,0.00,VWS V14.01,2013-03-21 02:36:00,
2013-03-20 21:39:00,23.9,5.2,30.14,North,353,8.1,8.1,44,0.00,,CLR,0.00,VWS V14.01,2013-03-21 02:39:00,
2013-03-20 21:40:00,23.7,5.0,30.14,NNW,345,6.3,11.0,44,0.00,,CLR,0.00,VWS V14.01,2013-03-21 02:40:00,
2013-03-20 21:41:00,23.7,5.0,30.14,North,353,8.3,10.1,44,0.00,,CLR,0.00,VWS V14.01,2013-03-21 02:41:00,
2013-03-20 21:43:00,23.7,5.0,30.14,NNW,343,8.7,12.3,44,0.00,,CLR,0.00,VWS V14.01,2013-03-21 02:43:00,
2013-03-20 21:44:00,23.5,4.8,30.14,North,353,10.5,10.5,44,0.00,,CLR,0.00,VWS V14.01,2013-03-21 02:44:00,
2013-03-20 21:45:00,23.7,5.0,30.14,NNW,345,11.0,13.2,44,0.00,,CLR,0.00,VWS V14.01,2013-03-21 02:45:00,
2013-03-20 21:48:00,23.9,5.2,30.14,NNW,334,12.3,12.3,44,0.00,,CLR,0.00,VWS V14.01,2013-03-21 02:48:00,
2013-03-20 21:50:00,23.9,5.2,30.14,NW,326,13.2,14.5,44,0.00,,CLR,0.00,VWS V14.01,2013-03-21 02:50:00,
2013-03-20 21:53:00,24.1,5.3,30.14,NNW,341,8.3,10.5,44,0.00,,CLR,0.00,VWS V14.01,2013-03-21 02:53:00,
2013-03-20 21:56:00,23.9,5.2,30.14,NNW,343,8.3,10.5,44,0.00,,CLR,0.00,VWS V14.01,2013-03-21 02:56:00,
2013-03-20 21:58:00,23.9,5.2,30.14,NNW,348,7.6,8.1,44,0.00,,CLR,0.00,VWS V14.01,2013-03-21 02:58:00,
2013-03-20 21:59:00,23.9,5.2,30.14,North,357,6.7,8.1,44,0.00,,CLR,0.00,VWS V14.01,2013-03-21 02:59:00,
2013-03-20 22:01:00,23.9,5.2,30.14,North,10,6.3,10.1,44,0.00,,CLR,0.00,VWS V14.01,2013-03-21 03:01:00,
2013-03-20 22:04:00,23.5,4.8,30.14,North,353,8.1,10.1,44,0.00,,CLR,0.00,VWS V14.01,2013-03-21 03:04:00,
2013-03-20 22:06:00,23.5,4.8,30.14,North,357,8.3,12.8,44,0.00,,CLR,0.00,VWS V14.01,2013-03-21 03:06:00,
2013-03-20 22:08:00,23.5,4.8,30.14,North,353,10.1,11.0,44,0.00,,CLR,0.00,VWS V14.01,2013-03-21 03:08:00,
2013-03-20 22:09:00,23.5,4.8,30.14,NNW,343,8.3,10.5,44,0.00,,CLR,0.00,VWS V14.01,2013-03-21 03:09:00,
2013-03-20 22:10:00,23.5,4.8,30.14,NNW,334,8.7,8.7,44,0.00,,CLR,0.00,VWS V14.01,2013-03-21 03:10:00,
2013-03-20 22:11:00,23.5,4.8,30.14,NNW,348,8.7,9.2,44,0.00,,CLR,0.00,VWS V14.01,2013-03-21 03:11:00,
2013-03-20 22:13:00,23.4,4.7,30.14,North,350,10.1,10.1,44,0.00,,CLR,0.00,VWS V14.01,2013-03-21 03:13:00,
2013-03-20 22:15:00,23.2,4.5,30.14,North,6,11.0,11.0,44,0.00,,CLR,0.00,VWS V14.01,2013-03-21 03:15:00,
2013-03-20 22:17:00,23.2,4.5,30.14,North,4,8.1,11.4,44,0.00,,CLR,0.00,VWS V14.01,2013-03-21 03:17:00,
2013-03-20 22:18:00,23.2,4.5,30.14,NNW,336,8.3,8.7,44,0.00,,CLR,0.00,VWS V14.01,2013-03-21 03:18:00,
2013-03-20 22:20:00,23.0,4.3,30.14,North,353,7.6,8.1,44,0.00,,CLR,0.00,VWS V14.01,2013-03-21 03:20:00,
2013-03-20 22:21:00,23.0,4.3,30.14,North,357,8.3,8.3,44,0.00,,CLR,0.00,VWS V14.01,2013-03-21 03:21:00,
2013-03-20 22:22:00,23.0,4.3,30.14,NNW,348,8.1,8.7,44,0.00,,CLR,0.00,VWS V14.01,2013-03-21 03:22:00,
2013-03-20 22:23:00,22.8,4.2,30.14,NNW,342,8.3,8.3,44,0.00,,CLR,0.00,VWS V14.01,2013-03-21 03:23:00,
2013-03-20 22:26:00,22.8,4.2,30.14,North,353,7.2,7.2,44,0.00,,CLR,0.00,VWS V14.01,2013-03-21 03:26:00,
2013-03-20 22:27:00,22.8,4.2,30.14,North,0,10.1,10.5,44,0.00,,CLR,0.00,VWS V14.01,2013-03-21 03:27:00,
2013-03-20 22:29:00,22.8,4.2,30.14,NNW,348,10.1,11.0,44,0.00,,CLR,0.00,VWS V14.01,2013-03-21 03:29:00,
2013-03-20 22:31:00,22.8,4.2,30.14,North,357,8.7,8.7,44,0.00,,CLR,0.00,VWS V14.01,2013-03-21 03:31:00,
2013-03-20 22:32:00,22.8,4.2,30.14,North,357,10.5,10.5,44,0.00,,CLR,0.00,VWS V14.01,2013-03-21 03:32:00,
2013-03-20 22:33:00,22.8,4.2,30.14,North,353,10.1,11.0,44,0.00,,CLR,0.00,VWS V14.01,2013-03-21 03:33:00,
2013-03-20 22:34:00,22.8,4.2,30.14,NNW,344,7.6,8.3,44,0.00,,CLR,0.00,VWS V14.01,2013-03-21 03:34:00,
2013-03-20 22:36:00,22.8,4.2,30.14,North,5,8.1,12.3,44,0.00,,CLR,0.00,VWS V14.01,2013-03-21 03:36:00,
2013-03-20 22:37:00,22.8,4.2,30.14,NNE,14,11.0,11.9,44,0.00,,CLR,0.00,VWS V14.01,2013-03-21 03:37:00,
2013-03-20 22:39:00,22.8,4.2,30.14,North,4,10.1,10.1,44,0.00,,CLR,0.00,VWS V14.01,2013-03-21 03:39:00,
2013-03-20 22:41:00,22.8,4.2,30.14,North,353,6.3,8.3,44,0.00,,CLR,0.00,VWS V14.01,2013-03-21 03:41:00,
2013-03-20 22:43:00,22.6,4.0,30.14,North,357,8.7,8.7,44,0.00,,CLR,0.00,VWS V14.01,2013-03-21 03:43:00,
2013-03-20 22:44:00,22.6,4.0,30.14,NNW,343,8.1,8.1,44,0.00,,CLR,0.00,VWS V14.01,2013-03-21 03:44:00,
2013-03-20 22:46:00,22.6,4.0,30.14,North,357,8.7,8.7,44,0.00,,CLR,0.00,VWS V14.01,2013-03-21 03:46:00,
2013-03-20 22:47:00,22.6,4.0,30.14,North,357,10.1,10.1,44,0.00,,CLR,0.00,VWS V14.01,2013-03-21 03:47:00,
2013-03-20 22:48:00,22.5,3.9,30.14,North,0,7.6,10.1,44,0.00,,CLR,0.00,VWS V14.01,2013-03-21 03:48:00,
2013-03-20 22:49:00,22.5,3.9,30.14,NNW,339,8.7,8.7,44,0.00,,CLR,0.00,VWS V14.01,2013-03-21 03:49:00,
2013-03-20 22:51:00,22.5,3.9,30.14,North,353,8.3,9.2,44,0.00,,CLR,0.00,VWS V14.01,2013-03-21 03:51:00,
2013-03-20 22:52:00,22.3,3.7,30.14,NNW,337,8.3,8.3,44,0.00,,CLR,0.00,VWS V14.01,2013-03-21 03:52:00,
2013-03-20 22:53:00,22.3,3.7,30.14,North,357,7.2,11.4,44,0.00,,CLR,0.00,VWS V14.01,2013-03-21 03:53:00,
2013-03-20 22:55:00,22.3,3.7,30.14,North,2,8.7,8.7,44,0.00,,CLR,0.00,VWS V14.01,2013-03-21 03:55:00,
2013-03-20 22:56:00,22.3,3.7,30.14,North,353,7.6,7.6,44,0.00,,CLR,0.00,VWS V14.01,2013-03-21 03:56:00,
2013-03-20 22:57:00,22.1,3.5,30.14,NNW,338,5.8,6.3,44,0.00,,CLR,0.00,VWS V14.01,2013-03-21 03:57:00,
2013-03-20 22:59:00,22.1,3.5,30.14,NNW,339,5.4,5.8,44,0.00,,CLR,0.00,VWS V14.01,2013-03-21 03:59:00,
2013-03-20 23:00:00,22.1,3.5,30.14,NNW,339,4.9,5.8,44,0.00,,CLR,0.00,VWS V14.01,2013-03-21 04:00:00,
2013-03-20 23:01:00,21.9,3.4,30.14,NNW,341,5.8,6.3,44,0.00,,CLR,0.00,VWS V14.01,2013-03-21 04:01:00,
2013-03-20 23:05:00,21.6,3.0,30.14,North,0,6.3,8.1,44,0.00,,CLR,0.00,VWS V14.01,2013-03-21 04:05:00,
2013-03-20 23:06:00,21.7,3.2,30.14,NNW,332,6.3,6.3,44,0.00,,CLR,0.00,VWS V14.01,2013-03-21 04:06:00,
2013-03-20 23:08:00,21.6,3.0,30.14,NNW,328,5.8,6.3,44,0.00,,CLR,0.00,VWS V14.01,2013-03-21 04:08:00,
2013-03-20 23:10:00,21.6,3.0,30.14,NW,326,5.8,8.3,44,0.00,,CLR,0.00,VWS V14.01,2013-03-21 04:10:00,
2013-03-20 23:11:00,21.6,3.0,30.14,NNW,327,6.7,6.7,44,0.00,,CLR,0.00,VWS V14.01,2013-03-21 04:11:00,
2013-03-20 23:12:00,21.6,3.0,30.14,NNW,331,6.3,6.7,44,0.00,,CLR,0.00,VWS V14.01,2013-03-21 04:12:00,
2013-03-20 23:13:00,21.6,3.0,30.14,NNW,329,6.7,6.7,44,0.00,,CLR,0.00,VWS V14.01,2013-03-21 04:13:00,
2013-03-20 23:15:00,21.4,2.9,30.14,NNW,329,5.8,6.7,44,0.00,,CLR,0.00,VWS V14.01,2013-03-21 04:15:00,
2013-03-20 23:17:00,21.4,2.9,30.14,NNW,345,5.8,5.8,44,0.00,,CLR,0.00,VWS V14.01,2013-03-21 04:17:00,
2013-03-20 23:18:00,21.4,2.9,30.14,NNW,335,5.4,6.3,44,0.00,,CLR,0.00,VWS V14.01,2013-03-21 04:18:00,
2013-03-20 23:20:00,21.4,2.9,30.14,NNW,335,5.8,6.3,44,0.00,,CLR,0.00,VWS V14.01,2013-03-21 04:20:00,
2013-03-20 23:22:00,21.2,2.7,30.14,NNW,341,4.9,4.9,44,0.00,,CLR,0.00,VWS V14.01,2013-03-21 04:22:00,
2013-03-20 23:23:00,21.2,2.7,30.14,NNW,335,5.8,6.3,44,0.00,,CLR,0.00,VWS V14.01,2013-03-21 04:23:00,
2013-03-20 23:24:00,21.2,2.7,30.14,North,353,5.4,6.3,44,0.00,,CLR,0.00,VWS V14.01,2013-03-21 04:24:00,
2013-03-20 23:25:00,21.2,5.5,30.14,NNW,330,7.2,7.2,50,0.00,,CLR,0.00,VWS V14.01,2013-03-21 04:25:00,
2013-03-20 23:27:00,21.2,2.7,30.14,NNW,331,5.4,5.8,44,0.00,,CLR,0.00,VWS V14.01,2013-03-21 04:27:00,
2013-03-20 23:29:00,21.2,5.5,30.14,NNW,331,5.8,5.8,50,0.00,,CLR,0.00,VWS V14.01,2013-03-21 04:29:00,
2013-03-20 23:31:00,21.0,5.3,30.14,NNW,337,5.4,5.8,50,0.00,,CLR,0.00,VWS V14.01,2013-03-21 04:31:00,
2013-03-20 23:33:00,20.8,5.1,30.14,NNW,340,4.9,4.9,50,0.00,,CLR,0.00,VWS V14.01,2013-03-21 04:33:00,
2013-03-20 23:34:00,20.8,5.1,30.14,NNW,340,4.9,5.4,50,0.00,,CLR,0.00,VWS V14.01,2013-03-21 04:34:00,
2013-03-20 23:35:00,20.8,5.1,30.14,NNW,338,4.9,5.8,50,0.00,,CLR,0.00,VWS V14.01,2013-03-21 04:35:00,
2013-03-20 23:36:00,20.7,5.0,30.14,NNW,338,5.4,5.4,50,0.00,,CLR,0.00,VWS V14.01,2013-03-21 04:36:00,
2013-03-20 23:38:00,20.7,5.0,30.14,NNW,340,5.4,5.4,50,0.00,,CLR,0.00,VWS V14.01,2013-03-21 04:38:00,
2013-03-20 23:39:00,20.5,4.8,30.14,NNW,333,4.0,4.9,50,0.00,,CLR,0.00,VWS V14.01,2013-03-21 04:39:00,
2013-03-20 23:40:00,20.5,4.8,30.14,NNW,333,5.4,5.4,50,0.00,,CLR,0.00,VWS V14.01,2013-03-21 04:40:00,
2013-03-20 23:42:00,20.5,4.8,30.14,NNW,328,6.3,6.3,50,0.00,,CLR,0.00,VWS V14.01,2013-03-21 04:42:00,
2013-03-20 23:44:00,20.5,4.8,30.14,NNW,334,5.4,5.8,50,0.00,,CLR,0.00,VWS V14.01,2013-03-21 04:44:00,
2013-03-20 23:45:00,20.5,4.8,30.14,NNW,333,4.0,5.4,50,0.00,,CLR,0.00,VWS V14.01,2013-03-21 04:45:00,
2013-03-20 23:47:00,20.5,4.8,30.14,NNW,333,5.4,6.3,50,0.00,,CLR,0.00,VWS V14.01,2013-03-21 04:47:00,
2013-03-20 23:49:00,20.3,4.6,30.14,North,353,6.7,6.7,50,0.00,,CLR,0.00,VWS V14.01,2013-03-21 04:49:00,
2013-03-20 23:50:00,20.3,4.6,30.14,North,353,6.3,6.7,50,0.00,,CLR,0.00,VWS V14.01,2013-03-21 04:50:00,
2013-03-20 23:53:00,20.3,4.6,30.14,North,353,4.9,4.9,50,0.00,,CLR,0.00,VWS V14.01,2013-03-21 04:53:00,
2013-03-20 23:55:00,20.3,4.6,30.14,NNW,341,4.9,5.4,50,0.00,,CLR,0.00,VWS V14.01,2013-03-21 04:55:00,
2013-03-20 23:58:00,20.3,4.6,30.14,North,0,5.4,5.4,50,0.00,,CLR,0.00,VWS V14.01,2013-03-21 04:58:00,